Time,TemperatureF,DewpointF,PressureIn,WindDirection,WindDirectionDegrees,WindSpeedMPH,WindSpeedGustMPH,Humidity,HourlyPrecipIn,Conditions,Clouds,dailyrainin,SoftwareType,DateUTC
2014-03-01 00:00:00,48.0,45.8,30.02,North,0,0.0,0.0,92,0.00,,---,0.00,VWS V14.01,2014-03-01 05:00:00,
2014-03-01 00:01:00,48.0,45.8,30.02,North,0,0.0,0.0,92,0.00,,---,0.00,VWS V14.01,2014-03-01 05:01:00,
2014-03-01 00:02:00,47.9,45.7,30.02,North,0,0.0,0.0,92,0.00,,---,0.00,VWS V14.01,2014-03-01 05:02:00,
2014-03-01 00:06:00,47.7,45.5,30.02,North,0,0.0,0.0,92,0.00,,---,0.00,VWS V14.01,2014-03-01 05:06:00,
2014-03-01 00:07:00,47.6,45.4,30.02,North,0,0.0,0.0,92,0.00,,---,0.00,VWS V14.01,2014-03-01 05:07:00,
2014-03-01 00:09:00,47.6,45.4,30.02,North,0,0.0,0.0,92,0.00,,---,0.00,VWS V14.01,2014-03-01 05:09:00,
2014-03-01 00:10:00,47.6,45.4,30.02,North,0,0.0,0.0,92,0.00,,---,0.00,VWS V14.01,2014-03-01 05:10:00,
2014-03-01 00:11:00,47.4,45.2,30.02,North,0,0.0,0.0,92,0.00,,---,0.00,VWS V14.01,2014-03-01 05:11:00,
2014-03-01 00:12:00,47.4,45.2,30.02,North,0,0.0,0.0,92,0.00,,---,0.00,VWS V14.01,2014-03-01 05:12:00,
2014-03-01 00:14:00,47.4,45.2,30.02,North,0,0.0,0.0,92,0.00,,---,0.00,VWS V14.01,2014-03-01 05:14:00,
2014-03-01 00:15:00,47.4,45.2,30.01,North,0,0.0,0.0,92,0.00,,---,0.00,VWS V14.01,2014-03-01 05:15:00,
2014-03-01 00:17:00,47.4,45.2,30.01,North,0,0.0,0.0,92,0.00,,---,0.00,VWS V14.01,2014-03-01 05:17:00,
2014-03-01 00:18:00,47.4,45.2,30.01,North,0,0.0,0.0,92,0.00,,---,0.00,VWS V14.01,2014-03-01 05:18:00,
2014-03-01 00:20:00,47.4,45.2,30.01,North,0,0.0,0.0,92,0.00,,---,0.00,VWS V14.01,2014-03-01 05:20:00,
2014-03-01 00:21:00,47.3,45.1,30.01,North,0,0.0,0.0,92,0.00,,---,0.00,VWS V14.01,2014-03-01 05:21:00,
2014-03-01 00:22:00,47.3,45.1,30.01,North,0,0.0,0.0,92,0.00,,---,0.00,VWS V14.01,2014-03-01 05:22:00,
2014-03-01 00:23:00,47.3,45.1,30.01,North,0,0.0,0.0,92,0.00,,---,0.00,VWS V14.01,2014-03-01 05:23:00,
2014-03-01 00:26:00,47.1,45.2,30.01,North,0,0.0,0.0,93,0.00,,---,0.00,VWS V14.01,2014-03-01 05:26:00,
2014-03-01 00:27:00,47.1,45.2,30.01,North,0,0.0,0.0,93,0.00,,---,0.00,VWS V14.01,2014-03-01 05:27:00,
2014-03-01 00:28:00,47.1,45.2,30.01,North,0,0.0,0.0,93,0.00,,---,0.00,VWS V14.01,2014-03-01 05:28:00,
2014-03-01 00:29:00,47.1,45.2,30.01,North,0,0.0,0.0,93,0.00,,---,0.00,VWS V14.01,2014-03-01 05:29:00,
2014-03-01 00:32:00,47.1,45.2,30.01,North,0,0.0,0.0,93,0.00,,---,0.00,VWS V14.01,2014-03-01 05:32:00,
2014-03-01 00:33:00,47.1,45.2,30.01,North,0,0.0,0.0,93,0.00,,---,0.00,VWS V14.01,2014-03-01 05:33:00,
2014-03-01 00:37:00,47.0,45.1,30.01,North,0,0.0,0.0,93,0.00,,---,0.00,VWS V14.01,2014-03-01 05:37:00,
2014-03-01 00:38:00,47.0,45.1,30.01,North,0,0.0,0.0,93,0.00,,---,0.00,VWS V14.01,2014-03-01 05:38:00,
2014-03-01 00:39:00,47.0,45.1,30.01,North,0,0.0,0.0,93,0.00,,---,0.00,VWS V14.01,2014-03-01 05:39:00,
2014-03-01 00:41:00,47.0,45.1,30.01,North,0,0.0,0.0,93,0.00,,---,0.00,VWS V14.01,2014-03-01 05:41:00,
2014-03-01 00:43:00,47.0,45.1,30.01,North,0,0.0,0.0,93,0.00,,---,0.00,VWS V14.01,2014-03-01 05:43:00,
2014-03-01 00:44:00,47.0,45.1,30.01,North,0,0.0,0.0,93,0.00,,---,0.00,VWS V14.01,2014-03-01 05:44:00,
2014-03-01 00:46:00,47.1,45.2,30.01,North,0,0.0,0.0,93,0.00,,---,0.00,VWS V14.01,2014-03-01 05:46:00,
2014-03-01 00:47:00,47.3,45.7,30.01,North,0,0.0,0.0,94,0.00,,---,0.00,VWS V14.01,2014-03-01 05:47:00,
2014-03-01 00:48:00,47.3,45.7,30.01,North,0,0.0,0.0,94,0.00,,---,0.00,VWS V14.01,2014-03-01 05:48:00,
2014-03-01 00:50:00,47.3,45.4,30.01,North,0,0.0,0.0,93,0.00,,---,0.00,VWS V14.01,2014-03-01 05:50:00,
2014-03-01 00:52:00,47.3,45.4,30.01,North,0,0.0,0.0,93,0.00,,---,0.00,VWS V14.01,2014-03-01 05:52:00,
2014-03-01 00:53:00,47.3,45.4,30.01,North,0,0.0,0.0,93,0.00,,---,0.00,VWS V14.01,2014-03-01 05:53:00,
2014-03-01 00:55:00,47.3,45.4,30.01,North,0,0.0,0.0,93,0.00,,---,0.00,VWS V14.01,2014-03-01 05:55:00,
2014-03-01 00:58:00,47.3,45.4,30.01,North,0,0.0,0.0,93,0.00,,---,0.00,VWS V14.01,2014-03-01 05:58:00,
2014-03-01 00:59:00,47.1,45.2,30.01,North,0,0.0,0.0,93,0.00,,---,0.00,VWS V14.01,2014-03-01 05:59:00,
2014-03-01 01:00:00,47.1,45.2,30.02,North,0,0.0,0.0,93,0.00,,---,0.00,VWS V14.01,2014-03-01 06:00:00,
2014-03-01 01:01:00,47.1,45.2,30.02,North,0,0.0,0.0,93,0.00,,---,0.00,VWS V14.01,2014-03-01 06:01:00,
2014-03-01 01:03:00,47.1,45.2,30.02,North,0,0.0,0.0,93,0.00,,---,0.00,VWS V14.01,2014-03-01 06:03:00,
2014-03-01 01:04:00,47.0,45.1,30.02,North,0,0.0,0.0,93,0.00,,---,0.00,VWS V14.01,2014-03-01 06:04:00,
2014-03-01 01:06:00,47.0,45.1,30.02,North,0,0.0,0.0,93,0.00,,---,0.00,VWS V14.01,2014-03-01 06:06:00,
2014-03-01 01:08:00,47.0,45.1,30.02,North,0,0.0,0.0,93,0.00,,---,0.00,VWS V14.01,2014-03-01 06:08:00,
2014-03-01 01:09:00,47.0,45.1,30.02,North,0,0.0,0.0,93,0.00,,---,0.00,VWS V14.01,2014-03-01 06:09:00,
2014-03-01 01:10:00,47.0,45.1,30.02,North,0,0.0,0.0,93,0.00,,---,0.00,VWS V14.01,2014-03-01 06:10:00,
2014-03-01 01:12:00,46.8,44.9,30.02,North,0,0.0,0.0,93,0.00,,---,0.00,VWS V14.01,2014-03-01 06:12:00,
2014-03-01 01:13:00,46.8,44.9,30.02,North,0,0.0,0.0,93,0.00,,---,0.00,VWS V14.01,2014-03-01 06:13:00,
2014-03-01 01:14:00,46.8,44.9,30.02,North,0,0.0,0.0,93,0.00,,---,0.00,VWS V14.01,2014-03-01 06:14:00,
2014-03-01 01:16:00,46.8,44.9,30.01,North,0,0.0,0.0,93,0.00,,---,0.00,VWS V14.01,2014-03-01 06:16:00,
2014-03-01 01:18:00,46.7,44.8,30.01,North,0,0.0,0.0,93,0.00,,---,0.00,VWS V14.01,2014-03-01 06:18:00,
2014-03-01 01:19:00,46.7,44.8,30.01,North,0,0.0,0.0,93,0.00,,---,0.00,VWS V14.01,2014-03-01 06:19:00,
2014-03-01 01:20:00,46.7,44.8,30.01,North,0,0.0,0.0,93,0.00,,---,0.00,VWS V14.01,2014-03-01 06:20:00,
2014-03-01 01:21:00,46.7,44.8,30.01,North,0,0.0,0.0,93,0.00,,---,0.00,VWS V14.01,2014-03-01 06:21:00,
2014-03-01 01:22:00,46.7,44.8,30.01,North,0,0.0,0.0,93,0.00,,---,0.00,VWS V14.01,2014-03-01 06:22:00,
2014-03-01 01:24:00,46.7,44.8,30.01,North,0,0.0,0.0,93,0.00,,---,0.00,VWS V14.01,2014-03-01 06:24:00,
2014-03-01 01:25:00,46.5,44.9,30.01,North,0,0.0,0.0,94,0.00,,---,0.00,VWS V14.01,2014-03-01 06:25:00,
2014-03-01 01:27:00,46.5,44.9,30.01,North,0,0.0,0.0,94,0.00,,---,0.00,VWS V14.01,2014-03-01 06:27:00,
2014-03-01 01:30:00,46.7,45.1,30.01,North,0,0.0,0.0,94,0.00,,---,0.00,VWS V14.01,2014-03-01 06:30:00,
2014-03-01 01:31:00,46.7,45.1,30.01,North,0,0.0,0.0,94,0.00,,---,0.00,VWS V14.01,2014-03-01 06:31:00,
2014-03-01 01:32:00,46.7,45.1,30.01,North,0,0.0,0.0,94,0.00,,---,0.00,VWS V14.01,2014-03-01 06:32:00,
2014-03-01 01:33:00,46.7,45.1,30.01,North,0,0.0,0.0,94,0.00,,---,0.00,VWS V14.01,2014-03-01 06:33:00,
2014-03-01 01:38:00,46.7,45.1,30.01,North,0,0.0,0.0,94,0.00,,---,0.00,VWS V14.01,2014-03-01 06:38:00,
2014-03-01 01:39:00,46.7,45.1,30.01,North,0,0.0,0.0,94,0.00,,---,0.00,VWS V14.01,2014-03-01 06:39:00,
2014-03-01 01:40:00,46.5,44.9,30.01,North,0,0.0,0.0,94,0.00,,---,0.00,VWS V14.01,2014-03-01 06:40:00,
2014-03-01 01:42:00,46.5,44.9,30.01,North,0,0.0,0.0,94,0.00,,---,0.00,VWS V14.01,2014-03-01 06:42:00,
2014-03-01 01:43:00,46.5,44.9,30.01,North,0,0.0,0.0,94,0.00,,---,0.00,VWS V14.01,2014-03-01 06:43:00,
2014-03-01 01:44:00,46.5,44.9,30.01,North,0,0.0,0.0,94,0.00,,---,0.00,VWS V14.01,2014-03-01 06:44:00,
2014-03-01 01:45:00,46.5,44.9,30.01,North,0,0.0,0.0,94,0.00,,---,0.00,VWS V14.01,2014-03-01 06:45:00,
2014-03-01 01:48:00,46.4,44.8,30.01,North,0,0.0,0.0,94,0.00,,---,0.00,VWS V14.01,2014-03-01 06:48:00,
2014-03-01 01:49:00,46.4,44.8,30.01,North,0,0.0,0.0,94,0.00,,---,0.00,VWS V14.01,2014-03-01 06:49:00,
2014-03-01 01:50:00,46.2,44.6,30.01,North,0,0.0,0.0,94,0.00,,---,0.00,VWS V14.01,2014-03-01 06:50:00,
2014-03-01 01:53:00,46.2,44.6,30.01,North,0,0.0,0.0,94,0.00,,---,0.00,VWS V14.01,2014-03-01 06:53:00,
2014-03-01 01:54:00,46.2,44.6,30.01,North,0,0.0,0.0,94,0.00,,---,0.00,VWS V14.01,2014-03-01 06:54:00,
2014-03-01 01:55:00,46.2,44.6,30.01,North,0,0.0,0.0,94,0.00,,---,0.00,VWS V14.01,2014-03-01 06:55:00,
2014-03-01 01:56:00,46.1,44.5,30.01,North,0,0.0,0.0,94,0.00,,---,0.00,VWS V14.01,2014-03-01 06:56:00,
2014-03-01 01:58:00,46.1,44.5,30.01,North,0,0.0,0.0,94,0.00,,---,0.00,VWS V14.01,2014-03-01 06:58:00,
2014-03-01 01:59:00,46.1,44.5,30.01,North,0,0.0,0.0,94,0.00,,---,0.00,VWS V14.01,2014-03-01 06:59:00,
2014-03-01 02:01:00,46.0,44.4,30.02,North,0,0.0,0.0,94,0.00,,---,0.00,VWS V14.01,2014-03-01 07:01:00,
2014-03-01 02:02:00,46.0,44.4,30.02,North,0,0.0,0.0,94,0.00,,---,0.00,VWS V14.01,2014-03-01 07:02:00,
2014-03-01 02:03:00,45.8,44.2,30.02,North,0,0.0,0.0,94,0.00,,---,0.00,VWS V14.01,2014-03-01 07:03:00,
2014-03-01 02:05:00,45.8,44.2,30.02,North,0,0.0,0.0,94,0.00,,---,0.00,VWS V14.01,2014-03-01 07:05:00,
2014-03-01 02:06:00,45.7,44.1,30.02,North,0,0.0,0.0,94,0.00,,---,0.00,VWS V14.01,2014-03-01 07:06:00,
2014-03-01 02:08:00,45.7,44.1,30.02,North,0,0.0,0.0,94,0.00,,---,0.00,VWS V14.01,2014-03-01 07:08:00,
2014-03-01 02:10:00,45.5,43.9,30.02,North,0,0.0,0.0,94,0.00,,---,0.00,VWS V14.01,2014-03-01 07:10:00,
2014-03-01 02:12:00,45.5,43.9,30.02,North,0,0.0,0.0,94,0.00,,---,0.00,VWS V14.01,2014-03-01 07:12:00,
2014-03-01 02:13:00,45.5,44.2,30.02,North,0,0.0,0.0,95,0.00,,---,0.00,VWS V14.01,2014-03-01 07:13:00,
2014-03-01 02:16:00,45.5,44.2,30.01,North,0,0.0,0.0,95,0.00,,---,0.00,VWS V14.01,2014-03-01 07:16:00,
2014-03-01 02:17:00,45.5,44.2,30.01,North,0,0.0,0.0,95,0.00,,---,0.00,VWS V14.01,2014-03-01 07:17:00,
2014-03-01 02:18:00,45.5,44.2,30.01,North,0,0.0,0.0,95,0.00,,---,0.00,VWS V14.01,2014-03-01 07:18:00,
2014-03-01 02:19:00,45.5,44.2,30.01,North,0,0.0,0.0,95,0.00,,---,0.00,VWS V14.01,2014-03-01 07:19:00,
2014-03-01 02:22:00,45.5,44.2,30.01,North,0,0.0,0.0,95,0.00,,---,0.00,VWS V14.01,2014-03-01 07:22:00,
2014-03-01 02:23:00,45.5,44.2,30.01,North,0,0.0,0.0,95,0.00,,---,0.00,VWS V14.01,2014-03-01 07:23:00,
2014-03-01 02:24:00,45.5,44.2,30.01,North,0,0.0,0.0,95,0.00,,---,0.00,VWS V14.01,2014-03-01 07:24:00,
2014-03-01 02:25:00,45.4,44.0,30.01,North,0,0.0,0.0,95,0.00,,---,0.00,VWS V14.01,2014-03-01 07:25:00,
2014-03-01 02:26:00,45.4,44.0,30.01,North,0,0.0,0.0,95,0.00,,---,0.00,VWS V14.01,2014-03-01 07:26:00,
2014-03-01 02:27:00,45.4,44.0,30.01,North,0,0.0,0.0,95,0.00,,---,0.00,VWS V14.01,2014-03-01 07:27:00,
2014-03-01 02:28:00,45.4,44.0,30.01,North,0,0.0,0.0,95,0.00,,---,0.00,VWS V14.01,2014-03-01 07:28:00,
2014-03-01 02:30:00,45.4,44.0,30.01,North,0,0.0,0.0,95,0.00,,---,0.00,VWS V14.01,2014-03-01 07:30:00,
2014-03-01 02:31:00,45.4,44.0,30.00,North,0,0.0,0.0,95,0.00,,---,0.00,VWS V14.01,2014-03-01 07:31:00,
2014-03-01 02:33:00,45.2,43.9,30.00,North,0,0.0,0.0,95,0.00,,---,0.00,VWS V14.01,2014-03-01 07:33:00,
2014-03-01 02:35:00,45.2,43.9,30.00,North,0,0.0,0.0,95,0.00,,---,0.00,VWS V14.01,2014-03-01 07:35:00,
2014-03-01 02:36:00,45.1,43.8,30.00,North,0,0.0,0.0,95,0.00,,---,0.00,VWS V14.01,2014-03-01 07:36:00,
2014-03-01 02:37:00,45.1,43.8,30.00,North,0,0.0,0.0,95,0.00,,---,0.00,VWS V14.01,2014-03-01 07:37:00,
2014-03-01 02:38:00,45.1,43.8,30.00,North,0,0.0,0.0,95,0.00,,---,0.00,VWS V14.01,2014-03-01 07:38:00,
2014-03-01 02:41:00,45.1,43.8,30.00,North,0,0.0,0.0,95,0.00,,---,0.00,VWS V14.01,2014-03-01 07:41:00,
2014-03-01 02:43:00,44.9,43.6,30.00,North,0,0.0,0.0,95,0.00,,---,0.00,VWS V14.01,2014-03-01 07:43:00,
2014-03-01 02:44:00,44.9,43.6,30.00,North,0,0.0,0.0,95,0.00,,---,0.00,VWS V14.01,2014-03-01 07:44:00,
2014-03-01 02:47:00,44.8,43.5,30.00,North,0,0.0,0.0,95,0.00,,---,0.00,VWS V14.01,2014-03-01 07:47:00,
2014-03-01 02:48:00,44.8,43.5,30.00,North,0,0.0,0.0,95,0.00,,---,0.00,VWS V14.01,2014-03-01 07:48:00,
2014-03-01 02:49:00,44.8,43.5,30.00,North,0,0.0,0.0,95,0.00,,---,0.00,VWS V14.01,2014-03-01 07:49:00,
2014-03-01 02:52:00,44.6,43.3,30.00,North,0,0.0,0.0,95,0.00,,---,0.00,VWS V14.01,2014-03-01 07:52:00,
2014-03-01 02:53:00,44.6,43.3,30.00,North,0,0.0,0.0,95,0.00,,---,0.00,VWS V14.01,2014-03-01 07:53:00,
2014-03-01 02:54:00,44.6,43.3,30.00,North,0,0.0,0.0,95,0.00,,---,0.00,VWS V14.01,2014-03-01 07:54:00,
2014-03-01 02:55:00,44.6,43.3,30.00,North,0,0.0,0.0,95,0.00,,---,0.00,VWS V14.01,2014-03-01 07:55:00,
2014-03-01 02:56:00,44.6,43.3,30.00,North,0,0.0,0.0,95,0.00,,---,0.00,VWS V14.01,2014-03-01 07:56:00,
2014-03-01 02:58:00,44.5,43.2,30.00,North,0,0.0,0.0,95,0.00,,---,0.00,VWS V14.01,2014-03-01 07:58:00,
2014-03-01 02:59:00,44.5,43.2,30.00,North,0,0.0,0.0,95,0.00,,---,0.00,VWS V14.01,2014-03-01 07:59:00,
2014-03-01 03:00:00,44.5,43.2,30.00,North,0,0.0,0.0,95,0.00,,---,0.00,VWS V14.01,2014-03-01 08:00:00,
2014-03-01 03:01:00,44.5,43.2,30.00,North,0,0.0,0.0,95,0.00,,---,0.00,VWS V14.01,2014-03-01 08:01:00,
2014-03-01 03:03:00,44.5,43.2,30.00,North,0,0.0,0.0,95,0.00,,---,0.00,VWS V14.01,2014-03-01 08:03:00,
2014-03-01 03:04:00,44.5,43.2,30.00,North,0,0.0,0.0,95,0.00,,---,0.00,VWS V14.01,2014-03-01 08:04:00,
2014-03-01 03:05:00,44.5,43.2,30.00,North,0,0.0,0.0,95,0.00,,---,0.00,VWS V14.01,2014-03-01 08:05:00,
2014-03-01 03:06:00,44.5,43.2,30.00,North,0,0.0,0.0,95,0.00,,---,0.00,VWS V14.01,2014-03-01 08:06:00,
2014-03-01 03:09:00,44.6,43.5,30.00,North,0,0.0,0.0,96,0.00,,---,0.00,VWS V14.01,2014-03-01 08:09:00,
2014-03-01 03:10:00,44.6,43.5,30.00,North,0,0.0,0.0,96,0.00,,---,0.00,VWS V14.01,2014-03-01 08:10:00,
2014-03-01 03:12:00,44.6,43.5,30.00,North,0,0.0,0.0,96,0.00,,---,0.00,VWS V14.01,2014-03-01 08:12:00,
2014-03-01 03:13:00,44.6,43.5,30.00,North,0,0.0,0.0,96,0.00,,---,0.00,VWS V14.01,2014-03-01 08:13:00,
2014-03-01 03:14:00,44.6,43.5,30.00,North,0,0.0,0.0,96,0.00,,---,0.00,VWS V14.01,2014-03-01 08:14:00,
2014-03-01 03:15:00,44.6,43.5,30.00,North,0,0.0,0.0,96,0.00,,---,0.00,VWS V14.01,2014-03-01 08:15:00,
2014-03-01 03:17:00,44.8,43.7,30.00,North,0,0.0,0.0,96,0.00,,---,0.00,VWS V14.01,2014-03-01 08:17:00,
2014-03-01 03:18:00,44.8,43.7,30.00,North,0,0.0,0.0,96,0.00,,---,0.00,VWS V14.01,2014-03-01 08:18:00,
2014-03-01 03:19:00,44.8,43.7,30.00,North,0,0.0,0.0,96,0.00,,---,0.00,VWS V14.01,2014-03-01 08:19:00,
2014-03-01 03:21:00,44.8,43.7,30.00,North,0,0.0,0.0,96,0.00,,---,0.00,VWS V14.01,2014-03-01 08:21:00,
2014-03-01 03:22:00,44.8,43.7,30.00,North,0,0.0,0.0,96,0.00,,---,0.00,VWS V14.01,2014-03-01 08:22:00,
2014-03-01 03:23:00,44.8,43.7,30.00,North,0,0.0,0.0,96,0.00,,---,0.00,VWS V14.01,2014-03-01 08:23:00,
2014-03-01 03:24:00,44.8,43.7,30.00,North,0,0.0,0.0,96,0.00,,---,0.00,VWS V14.01,2014-03-01 08:24:00,
2014-03-01 03:26:00,44.6,43.5,30.00,North,0,0.0,0.0,96,0.00,,---,0.00,VWS V14.01,2014-03-01 08:26:00,
2014-03-01 03:28:00,44.6,43.5,30.00,North,0,0.0,0.0,96,0.00,,---,0.00,VWS V14.01,2014-03-01 08:28:00,
2014-03-01 03:29:00,44.6,43.5,30.00,North,0,0.0,0.0,96,0.00,,---,0.00,VWS V14.01,2014-03-01 08:29:00,
2014-03-01 03:30:00,44.6,43.5,30.00,North,0,0.0,0.0,96,0.00,,---,0.00,VWS V14.01,2014-03-01 08:30:00,
2014-03-01 03:31:00,44.8,43.7,29.99,North,0,0.0,0.0,96,0.00,,---,0.00,VWS V14.01,2014-03-01 08:31:00,
2014-03-01 03:32:00,44.8,43.7,29.99,North,0,0.0,0.0,96,0.00,,---,0.00,VWS V14.01,2014-03-01 08:32:00,
2014-03-01 03:33:00,44.8,43.7,29.99,North,0,0.0,0.0,96,0.00,,---,0.00,VWS V14.01,2014-03-01 08:33:00,
2014-03-01 03:35:00,44.8,43.7,29.99,North,0,0.0,0.0,96,0.00,,---,0.00,VWS V14.01,2014-03-01 08:35:00,
2014-03-01 03:36:00,44.8,43.7,29.99,North,0,0.0,0.0,96,0.00,,---,0.00,VWS V14.01,2014-03-01 08:36:00,
2014-03-01 03:39:00,44.6,43.5,29.99,North,0,0.0,0.0,96,0.00,,---,0.00,VWS V14.01,2014-03-01 08:39:00,
2014-03-01 03:40:00,44.6,43.5,29.99,North,0,0.0,0.0,96,0.00,,---,0.00,VWS V14.01,2014-03-01 08:40:00,
2014-03-01 03:41:00,44.8,43.7,29.99,North,0,0.0,0.0,96,0.00,,---,0.00,VWS V14.01,2014-03-01 08:41:00,
2014-03-01 03:43:00,44.8,43.7,29.99,North,0,0.0,0.0,96,0.00,,---,0.00,VWS V14.01,2014-03-01 08:43:00,
2014-03-01 03:45:00,44.8,43.7,29.99,North,0,0.0,0.0,96,0.00,,---,0.00,VWS V14.01,2014-03-01 08:45:00,
2014-03-01 03:46:00,44.8,43.7,29.99,North,0,0.0,0.0,96,0.00,,---,0.00,VWS V14.01,2014-03-01 08:46:00,
2014-03-01 03:48:00,44.9,44.1,29.99,North,0,0.0,0.0,97,0.00,,---,0.00,VWS V14.01,2014-03-01 08:48:00,
2014-03-01 03:49:00,44.9,43.8,29.99,North,0,0.0,0.0,96,0.00,,---,0.00,VWS V14.01,2014-03-01 08:49:00,
2014-03-01 03:50:00,44.9,43.8,29.99,North,0,0.0,0.0,96,0.00,,---,0.00,VWS V14.01,2014-03-01 08:50:00,
2014-03-01 03:51:00,44.9,43.8,29.99,North,0,0.0,0.0,96,0.00,,---,0.00,VWS V14.01,2014-03-01 08:51:00,
2014-03-01 03:52:00,44.9,43.8,29.99,North,0,0.0,0.0,96,0.00,,---,0.00,VWS V14.01,2014-03-01 08:52:00,
2014-03-01 03:54:00,44.9,44.1,29.99,North,0,0.0,0.0,97,0.00,,---,0.00,VWS V14.01,2014-03-01 08:54:00,
2014-03-01 03:55:00,45.1,44.3,29.99,North,0,0.0,0.0,97,0.00,,---,0.00,VWS V14.01,2014-03-01 08:55:00,
2014-03-01 03:56:00,45.1,44.3,29.99,North,0,0.0,0.0,97,0.00,,---,0.00,VWS V14.01,2014-03-01 08:56:00,
2014-03-01 03:57:00,45.1,44.3,29.99,North,0,0.0,0.0,97,0.00,,---,0.00,VWS V14.01,2014-03-01 08:57:00,
2014-03-01 03:58:00,45.1,44.3,29.99,North,0,0.0,0.0,97,0.00,,---,0.00,VWS V14.01,2014-03-01 08:58:00,
2014-03-01 04:00:00,45.4,44.6,29.99,North,0,0.0,0.0,97,0.00,,---,0.00,VWS V14.01,2014-03-01 09:00:00,
2014-03-01 04:01:00,45.4,44.6,29.99,North,0,0.0,0.0,97,0.00,,---,0.00,VWS V14.01,2014-03-01 09:01:00,
2014-03-01 04:03:00,45.5,44.7,29.99,North,0,0.0,0.0,97,0.00,,---,0.00,VWS V14.01,2014-03-01 09:03:00,
2014-03-01 04:05:00,45.7,44.9,29.99,North,0,0.0,0.0,97,0.00,,---,0.00,VWS V14.01,2014-03-01 09:05:00,
2014-03-01 04:06:00,45.7,44.9,29.99,North,0,0.0,0.0,97,0.00,,---,0.00,VWS V14.01,2014-03-01 09:06:00,
2014-03-01 04:08:00,46.0,45.2,29.99,North,0,0.0,0.0,97,0.00,,---,0.00,VWS V14.01,2014-03-01 09:08:00,
2014-03-01 04:09:00,46.0,45.2,29.99,North,0,0.0,0.0,97,0.00,,---,0.00,VWS V14.01,2014-03-01 09:09:00,
2014-03-01 04:10:00,46.1,45.3,29.99,North,0,0.0,0.0,97,0.00,,---,0.00,VWS V14.01,2014-03-01 09:10:00,
2014-03-01 04:11:00,46.2,45.4,29.99,North,0,0.0,0.0,97,0.00,,---,0.00,VWS V14.01,2014-03-01 09:11:00,
2014-03-01 04:13:00,46.4,45.6,29.99,North,0,0.0,0.0,97,0.00,,---,0.00,VWS V14.01,2014-03-01 09:13:00,
2014-03-01 04:15:00,46.5,45.7,29.98,North,0,0.0,0.0,97,0.00,,---,0.00,VWS V14.01,2014-03-01 09:15:00,
2014-03-01 04:16:00,46.7,45.9,29.98,North,0,0.0,0.0,97,0.00,,---,0.00,VWS V14.01,2014-03-01 09:16:00,
2014-03-01 04:17:00,46.8,46.0,29.98,North,0,0.0,0.0,97,0.00,,---,0.00,VWS V14.01,2014-03-01 09:17:00,
2014-03-01 04:18:00,46.8,46.0,29.98,North,0,0.0,0.0,97,0.00,,---,0.00,VWS V14.01,2014-03-01 09:18:00,
2014-03-01 04:21:00,47.1,46.3,29.98,North,0,0.0,5.0,97,0.00,,---,0.00,VWS V14.01,2014-03-01 09:21:00,
2014-03-01 04:22:00,47.1,46.3,29.98,North,0,0.0,5.0,97,0.00,,---,0.00,VWS V14.01,2014-03-01 09:22:00,
2014-03-01 04:23:00,47.3,46.5,29.98,North,0,0.0,5.0,97,0.00,,---,0.00,VWS V14.01,2014-03-01 09:23:00,
2014-03-01 04:24:00,47.3,46.5,29.98,North,0,0.0,5.0,97,0.00,,---,0.00,VWS V14.01,2014-03-01 09:24:00,
2014-03-01 04:25:00,47.3,46.5,29.98,North,0,0.0,5.0,97,0.00,,---,0.00,VWS V14.01,2014-03-01 09:25:00,
2014-03-01 04:27:00,47.4,46.6,29.98,North,0,0.0,5.0,97,0.00,,---,0.00,VWS V14.01,2014-03-01 09:27:00,
2014-03-01 04:28:00,47.4,46.6,29.98,North,0,0.0,5.0,97,0.00,,---,0.00,VWS V14.01,2014-03-01 09:28:00,
2014-03-01 04:32:00,47.7,46.9,29.98,North,0,0.0,5.0,97,0.00,,---,0.00,VWS V14.01,2014-03-01 09:32:00,
2014-03-01 04:33:00,47.7,46.9,29.98,North,0,0.0,5.0,97,0.00,,---,0.00,VWS V14.01,2014-03-01 09:33:00,
2014-03-01 04:36:00,47.7,46.6,29.98,North,0,0.0,5.0,96,0.00,,---,0.00,VWS V14.01,2014-03-01 09:36:00,
2014-03-01 04:37:00,47.7,46.6,29.98,North,0,0.0,5.0,96,0.00,,---,0.00,VWS V14.01,2014-03-01 09:37:00,
2014-03-01 04:38:00,47.7,46.6,29.98,North,0,0.0,5.0,96,0.00,,---,0.00,VWS V14.01,2014-03-01 09:38:00,
2014-03-01 04:43:00,47.7,46.6,29.98,North,0,0.0,5.0,96,0.00,,---,0.00,VWS V14.01,2014-03-01 09:43:00,
2014-03-01 04:44:00,47.7,46.6,29.98,North,0,0.0,5.0,96,0.00,,---,0.00,VWS V14.01,2014-03-01 09:44:00,
2014-03-01 04:45:00,47.7,46.6,29.98,North,0,0.0,5.0,96,0.00,,---,0.00,VWS V14.01,2014-03-01 09:45:00,
2014-03-01 04:47:00,47.9,46.8,29.99,North,0,0.0,5.0,96,0.00,,---,0.00,VWS V14.01,2014-03-01 09:47:00,
2014-03-01 04:49:00,47.9,46.8,29.99,North,0,0.0,5.0,96,0.00,,---,0.00,VWS V14.01,2014-03-01 09:49:00,
2014-03-01 04:50:00,47.9,46.8,29.99,North,0,0.0,5.0,96,0.00,,---,0.00,VWS V14.01,2014-03-01 09:50:00,
2014-03-01 04:51:00,47.9,46.8,29.99,North,0,0.0,5.0,96,0.00,,---,0.00,VWS V14.01,2014-03-01 09:51:00,
2014-03-01 04:54:00,47.9,46.8,29.99,North,0,0.0,5.0,96,0.00,,---,0.00,VWS V14.01,2014-03-01 09:54:00,
2014-03-01 04:55:00,47.9,46.8,29.99,North,0,0.0,5.0,96,0.00,,---,0.00,VWS V14.01,2014-03-01 09:55:00,
2014-03-01 04:56:00,47.9,46.8,29.99,North,0,0.0,5.0,96,0.00,,---,0.00,VWS V14.01,2014-03-01 09:56:00,
2014-03-01 04:58:00,47.9,46.8,29.99,North,0,0.0,5.0,96,0.00,,---,0.00,VWS V14.01,2014-03-01 09:58:00,
2014-03-01 04:59:00,47.9,46.8,29.99,North,0,0.0,5.0,96,0.00,,---,0.00,VWS V14.01,2014-03-01 09:59:00,
2014-03-01 05:02:00,47.9,46.8,29.99,North,0,0.0,0.0,96,0.00,,---,0.00,VWS V14.01,2014-03-01 10:02:00,
2014-03-01 05:03:00,47.9,46.8,29.99,North,0,0.0,0.0,96,0.00,,---,0.00,VWS V14.01,2014-03-01 10:03:00,
2014-03-01 05:05:00,47.9,46.8,29.99,North,0,0.0,0.0,96,0.00,,---,0.00,VWS V14.01,2014-03-01 10:05:00,
2014-03-01 05:08:00,47.9,46.8,29.99,North,0,0.0,0.0,96,0.00,,---,0.00,VWS V14.01,2014-03-01 10:08:00,
2014-03-01 05:09:00,47.9,46.8,29.99,North,0,0.0,0.0,96,0.00,,---,0.00,VWS V14.01,2014-03-01 10:09:00,
2014-03-01 05:10:00,47.9,46.8,29.99,North,0,0.0,0.0,96,0.00,,---,0.00,VWS V14.01,2014-03-01 10:10:00,
2014-03-01 05:11:00,47.9,46.8,29.99,North,0,0.0,0.0,96,0.00,,---,0.00,VWS V14.01,2014-03-01 10:11:00,
2014-03-01 05:14:00,47.9,46.8,29.99,North,0,0.0,0.0,96,0.00,,---,0.00,VWS V14.01,2014-03-01 10:14:00,
2014-03-01 05:15:00,47.9,46.8,29.99,North,0,0.0,0.0,96,0.00,,---,0.00,VWS V14.01,2014-03-01 10:15:00,
2014-03-01 05:18:00,48.0,46.9,29.99,North,0,0.0,0.0,96,0.00,,---,0.00,VWS V14.01,2014-03-01 10:18:00,
2014-03-01 05:19:00,48.0,46.9,29.99,North,0,0.0,0.0,96,0.00,,---,0.00,VWS V14.01,2014-03-01 10:19:00,
2014-03-01 05:20:00,48.0,46.9,29.99,North,0,0.0,0.0,96,0.00,,---,0.00,VWS V14.01,2014-03-01 10:20:00,
2014-03-01 05:21:00,47.9,46.8,29.99,North,0,0.0,0.0,96,0.00,,---,0.00,VWS V14.01,2014-03-01 10:21:00,
2014-03-01 05:23:00,47.9,46.8,29.99,North,0,0.0,0.0,96,0.00,,---,0.00,VWS V14.01,2014-03-01 10:23:00,
2014-03-01 05:25:00,47.7,46.6,29.99,North,0,0.0,0.0,96,0.00,,---,0.00,VWS V14.01,2014-03-01 10:25:00,
2014-03-01 05:26:00,47.7,46.6,29.99,North,0,0.0,0.0,96,0.00,,---,0.00,VWS V14.01,2014-03-01 10:26:00,
2014-03-01 05:27:00,47.7,46.6,29.99,North,0,0.0,0.0,96,0.00,,---,0.00,VWS V14.01,2014-03-01 10:27:00,
2014-03-01 05:30:00,47.6,46.5,30.00,North,0,0.0,0.0,96,0.00,,---,0.00,VWS V14.01,2014-03-01 10:30:00,
2014-03-01 05:31:00,47.4,46.3,30.00,North,0,0.0,0.0,96,0.00,,---,0.00,VWS V14.01,2014-03-01 10:31:00,
2014-03-01 05:32:00,47.4,46.3,30.00,North,0,0.0,0.0,96,0.00,,---,0.00,VWS V14.01,2014-03-01 10:32:00,
2014-03-01 05:33:00,47.4,46.3,30.00,North,0,0.0,0.0,96,0.00,,---,0.00,VWS V14.01,2014-03-01 10:33:00,
2014-03-01 05:34:00,47.4,46.3,30.00,North,0,0.0,0.0,96,0.00,,---,0.00,VWS V14.01,2014-03-01 10:34:00,
2014-03-01 05:36:00,47.3,46.2,30.00,North,0,0.0,0.0,96,0.00,,---,0.00,VWS V14.01,2014-03-01 10:36:00,
2014-03-01 05:37:00,47.3,46.2,30.00,North,0,0.0,0.0,96,0.00,,---,0.00,VWS V14.01,2014-03-01 10:37:00,
2014-03-01 05:38:00,47.1,46.0,30.00,North,0,0.0,0.0,96,0.00,,---,0.00,VWS V14.01,2014-03-01 10:38:00,
2014-03-01 05:39:00,47.1,46.0,30.00,North,0,0.0,0.0,96,0.00,,---,0.00,VWS V14.01,2014-03-01 10:39:00,
2014-03-01 05:41:00,47.0,45.9,30.00,North,0,0.0,0.0,96,0.00,,---,0.00,VWS V14.01,2014-03-01 10:41:00,
2014-03-01 05:42:00,46.8,45.7,30.00,North,0,0.0,0.0,96,0.00,,---,0.00,VWS V14.01,2014-03-01 10:42:00,
2014-03-01 05:43:00,46.8,45.7,30.00,North,0,0.0,0.0,96,0.00,,---,0.00,VWS V14.01,2014-03-01 10:43:00,
2014-03-01 05:44:00,46.8,45.7,30.00,North,0,0.0,0.0,96,0.00,,---,0.00,VWS V14.01,2014-03-01 10:44:00,
2014-03-01 05:45:00,46.7,45.6,30.00,North,0,0.0,0.0,96,0.00,,---,0.00,VWS V14.01,2014-03-01 10:45:00,
2014-03-01 05:47:00,46.7,45.6,30.00,North,0,0.0,0.0,96,0.00,,---,0.00,VWS V14.01,2014-03-01 10:47:00,
2014-03-01 05:48:00,46.7,45.6,30.00,North,0,0.0,0.0,96,0.00,,---,0.00,VWS V14.01,2014-03-01 10:48:00,
2014-03-01 05:49:00,46.7,45.6,30.00,North,0,0.0,0.0,96,0.00,,---,0.00,VWS V14.01,2014-03-01 10:49:00,
2014-03-01 05:52:00,46.7,45.6,30.00,North,0,0.0,0.0,96,0.00,,---,0.00,VWS V14.01,2014-03-01 10:52:00,
2014-03-01 05:53:00,46.5,45.4,30.00,North,0,0.0,0.0,96,0.01,,---,0.01,VWS V14.01,2014-03-01 10:53:00,
2014-03-01 05:54:00,46.5,45.4,30.00,North,0,0.0,0.0,96,0.01,,---,0.01,VWS V14.01,2014-03-01 10:54:00,
2014-03-01 05:55:00,46.5,45.4,30.00,North,0,0.0,0.0,96,0.01,,---,0.01,VWS V14.01,2014-03-01 10:55:00,
2014-03-01 05:58:00,46.4,45.3,30.00,North,0,0.0,0.0,96,0.01,,---,0.01,VWS V14.01,2014-03-01 10:58:00,
2014-03-01 05:59:00,46.2,45.1,30.00,North,0,0.0,0.0,96,0.01,,---,0.01,VWS V14.01,2014-03-01 10:59:00,
2014-03-01 06:00:00,46.2,45.1,30.00,North,0,0.0,0.0,96,0.01,,---,0.01,VWS V14.01,2014-03-01 11:00:00,
2014-03-01 06:02:00,46.2,45.1,30.01,North,0,0.0,0.0,96,0.01,,---,0.01,VWS V14.01,2014-03-01 11:02:00,
2014-03-01 06:04:00,46.1,45.0,30.01,North,0,0.0,0.0,96,0.01,,---,0.01,VWS V14.01,2014-03-01 11:04:00,
2014-03-01 06:06:00,46.0,44.9,30.01,North,0,0.0,0.0,96,0.01,,---,0.01,VWS V14.01,2014-03-01 11:06:00,
2014-03-01 06:07:00,46.0,44.9,30.01,North,0,0.0,0.0,96,0.01,,---,0.01,VWS V14.01,2014-03-01 11:07:00,
2014-03-01 06:09:00,45.8,44.7,30.01,North,0,0.0,0.0,96,0.01,,---,0.01,VWS V14.01,2014-03-01 11:09:00,
2014-03-01 06:12:00,45.7,44.6,30.01,North,0,0.0,0.0,96,0.01,,---,0.01,VWS V14.01,2014-03-01 11:12:00,
2014-03-01 06:13:00,45.5,44.4,30.01,North,0,0.0,0.0,96,0.01,,---,0.01,VWS V14.01,2014-03-01 11:13:00,
2014-03-01 06:14:00,45.5,44.4,30.01,North,0,0.0,0.0,96,0.01,,---,0.01,VWS V14.01,2014-03-01 11:14:00,
2014-03-01 06:17:00,45.4,44.3,30.02,North,0,0.0,0.0,96,0.01,,---,0.01,VWS V14.01,2014-03-01 11:17:00,
2014-03-01 06:18:00,45.4,44.3,30.02,North,0,0.0,0.0,96,0.01,,---,0.01,VWS V14.01,2014-03-01 11:18:00,
2014-03-01 06:19:00,45.4,44.3,30.02,North,0,0.0,0.0,96,0.01,,---,0.01,VWS V14.01,2014-03-01 11:19:00,
2014-03-01 06:20:00,45.2,44.1,30.02,North,0,0.0,0.0,96,0.01,,---,0.01,VWS V14.01,2014-03-01 11:20:00,
2014-03-01 06:22:00,45.2,44.1,30.02,North,0,0.0,0.0,96,0.01,,---,0.01,VWS V14.01,2014-03-01 11:22:00,
2014-03-01 06:23:00,45.2,44.1,30.02,North,0,0.0,0.0,96,0.01,,---,0.01,VWS V14.01,2014-03-01 11:23:00,
2014-03-01 06:24:00,45.2,44.1,30.02,North,0,0.0,0.0,96,0.01,,---,0.01,VWS V14.01,2014-03-01 11:24:00,
2014-03-01 06:26:00,45.1,44.0,30.02,North,0,0.0,0.0,96,0.01,,---,0.01,VWS V14.01,2014-03-01 11:26:00,
2014-03-01 06:27:00,45.1,44.0,30.02,North,0,0.0,0.0,96,0.01,,---,0.01,VWS V14.01,2014-03-01 11:27:00,
2014-03-01 06:29:00,45.1,44.0,30.02,North,0,0.0,0.0,96,0.01,,---,0.01,VWS V14.01,2014-03-01 11:29:00,
2014-03-01 06:31:00,45.1,44.0,30.03,North,0,0.0,0.0,96,0.01,,---,0.01,VWS V14.01,2014-03-01 11:31:00,
2014-03-01 06:32:00,45.1,44.0,30.03,North,0,0.0,0.0,96,0.01,,---,0.01,VWS V14.01,2014-03-01 11:32:00,
2014-03-01 06:34:00,44.9,43.8,30.03,North,0,0.0,0.0,96,0.01,,---,0.01,VWS V14.01,2014-03-01 11:34:00,
2014-03-01 06:36:00,44.9,44.1,30.03,North,0,0.0,0.0,97,0.01,,---,0.01,VWS V14.01,2014-03-01 11:36:00,
2014-03-01 06:37:00,44.9,44.1,30.03,North,0,0.0,0.0,97,0.01,,---,0.01,VWS V14.01,2014-03-01 11:37:00,
2014-03-01 06:39:00,44.9,43.8,30.03,North,0,0.0,0.0,96,0.01,,---,0.01,VWS V14.01,2014-03-01 11:39:00,
2014-03-01 06:40:00,44.9,43.8,30.03,North,0,0.0,0.0,96,0.01,,---,0.01,VWS V14.01,2014-03-01 11:40:00,
2014-03-01 06:41:00,44.8,43.7,30.03,North,0,0.0,0.0,96,0.01,,---,0.01,VWS V14.01,2014-03-01 11:41:00,
2014-03-01 06:44:00,44.8,44.0,30.03,North,0,0.0,0.0,97,0.01,,---,0.01,VWS V14.01,2014-03-01 11:44:00,
2014-03-01 06:45:00,44.8,44.0,30.03,North,0,0.0,0.0,97,0.01,,---,0.01,VWS V14.01,2014-03-01 11:45:00,
2014-03-01 06:46:00,44.8,44.0,30.03,North,0,0.0,0.0,97,0.01,,---,0.01,VWS V14.01,2014-03-01 11:46:00,
2014-03-01 06:49:00,44.6,43.8,30.03,North,0,0.0,0.0,97,0.01,,---,0.01,VWS V14.01,2014-03-01 11:49:00,
2014-03-01 06:50:00,44.6,43.8,30.03,North,0,0.0,0.0,97,0.01,,---,0.01,VWS V14.01,2014-03-01 11:50:00,
2014-03-01 06:52:00,44.6,43.8,30.03,North,0,0.0,0.0,97,0.01,,---,0.01,VWS V14.01,2014-03-01 11:52:00,
2014-03-01 06:55:00,44.6,43.8,30.03,North,0,0.0,0.0,97,0.01,,---,0.01,VWS V14.01,2014-03-01 11:55:00,
2014-03-01 06:56:00,44.5,43.7,30.03,North,0,0.0,0.0,97,0.01,,---,0.01,VWS V14.01,2014-03-01 11:56:00,
2014-03-01 07:00:00,44.3,43.5,30.03,North,0,0.0,0.0,97,0.01,,---,0.01,VWS V14.01,2014-03-01 12:00:00,
2014-03-01 07:01:00,44.3,43.5,30.04,North,0,0.0,0.0,97,0.01,,---,0.01,VWS V14.01,2014-03-01 12:01:00,
2014-03-01 07:02:00,44.2,43.4,30.04,North,0,0.0,0.0,97,0.00,,---,0.01,VWS V14.01,2014-03-01 12:02:00,
2014-03-01 07:04:00,44.2,43.4,30.04,North,0,0.0,0.0,97,0.00,,---,0.01,VWS V14.01,2014-03-01 12:04:00,
2014-03-01 07:05:00,44.1,43.3,30.04,North,0,0.0,0.0,97,0.00,,---,0.01,VWS V14.01,2014-03-01 12:05:00,
2014-03-01 07:06:00,44.1,43.3,30.04,North,0,0.0,0.0,97,0.00,,---,0.01,VWS V14.01,2014-03-01 12:06:00,
2014-03-01 07:07:00,44.1,43.3,30.04,North,0,0.0,0.0,97,0.00,,---,0.01,VWS V14.01,2014-03-01 12:07:00,
2014-03-01 07:09:00,44.1,43.3,30.04,North,0,0.0,0.0,97,0.00,,---,0.01,VWS V14.01,2014-03-01 12:09:00,
2014-03-01 07:10:00,44.1,43.3,30.04,North,0,0.0,0.0,97,0.00,,---,0.01,VWS V14.01,2014-03-01 12:10:00,
2014-03-01 07:11:00,44.1,43.3,30.04,North,0,0.0,0.0,97,0.00,,---,0.01,VWS V14.01,2014-03-01 12:11:00,
2014-03-01 07:12:00,44.1,43.3,30.04,North,0,0.0,0.0,97,0.00,,---,0.01,VWS V14.01,2014-03-01 12:12:00,
2014-03-01 07:13:00,44.1,43.3,30.04,North,0,0.0,0.0,97,0.00,,---,0.01,VWS V14.01,2014-03-01 12:13:00,
2014-03-01 07:15:00,44.1,43.3,30.04,North,0,0.0,0.0,97,0.00,,---,0.01,VWS V14.01,2014-03-01 12:15:00,
2014-03-01 07:17:00,44.1,43.3,30.05,North,0,0.0,0.0,97,0.00,,---,0.01,VWS V14.01,2014-03-01 12:17:00,
2014-03-01 07:18:00,44.1,43.3,30.05,North,0,0.0,0.0,97,0.00,,---,0.01,VWS V14.01,2014-03-01 12:18:00,
2014-03-01 07:21:00,44.2,43.4,30.05,North,0,0.0,0.0,97,0.00,,---,0.01,VWS V14.01,2014-03-01 12:21:00,
2014-03-01 07:22:00,44.2,43.4,30.05,North,0,0.0,0.0,97,0.00,,---,0.01,VWS V14.01,2014-03-01 12:22:00,
2014-03-01 07:23:00,44.3,43.5,30.05,North,0,0.0,0.0,97,0.00,,---,0.01,VWS V14.01,2014-03-01 12:23:00,
2014-03-01 07:24:00,44.3,43.5,30.05,North,0,0.0,0.0,97,0.00,,---,0.01,VWS V14.01,2014-03-01 12:24:00,
2014-03-01 07:26:00,44.5,43.7,30.05,North,0,0.0,0.0,97,0.00,,---,0.01,VWS V14.01,2014-03-01 12:26:00,
2014-03-01 07:28:00,44.8,44.0,30.05,North,0,0.0,0.0,97,0.00,,---,0.01,VWS V14.01,2014-03-01 12:28:00,
2014-03-01 07:30:00,45.1,44.6,30.05,North,0,0.0,0.0,98,0.00,,---,0.01,VWS V14.01,2014-03-01 12:30:00,
2014-03-01 07:32:00,45.4,44.9,30.05,North,0,0.0,0.0,98,0.00,,---,0.01,VWS V14.01,2014-03-01 12:32:00,
2014-03-01 07:33:00,45.7,45.2,30.05,North,0,0.0,0.0,98,0.00,,---,0.01,VWS V14.01,2014-03-01 12:33:00,
2014-03-01 07:34:00,45.7,45.2,30.05,North,0,0.0,0.0,98,0.00,,---,0.01,VWS V14.01,2014-03-01 12:34:00,
2014-03-01 07:35:00,46.0,45.5,30.05,North,0,0.0,0.0,98,0.00,,---,0.01,VWS V14.01,2014-03-01 12:35:00,
2014-03-01 07:37:00,46.4,46.1,30.05,North,0,0.0,0.0,99,0.00,,---,0.01,VWS V14.01,2014-03-01 12:37:00,
2014-03-01 07:39:00,46.7,46.4,30.05,North,0,0.0,0.0,99,0.00,,---,0.01,VWS V14.01,2014-03-01 12:39:00,
2014-03-01 07:40:00,46.8,46.5,30.05,North,0,0.0,0.0,99,0.00,,---,0.01,VWS V14.01,2014-03-01 12:40:00,
2014-03-01 07:41:00,47.1,46.6,30.05,North,0,0.0,0.0,98,0.00,,---,0.01,VWS V14.01,2014-03-01 12:41:00,
2014-03-01 07:43:00,47.4,46.9,30.05,North,0,0.0,0.0,98,0.00,,---,0.01,VWS V14.01,2014-03-01 12:43:00,
2014-03-01 07:45:00,47.6,47.3,30.05,North,0,0.0,0.0,99,0.00,,---,0.01,VWS V14.01,2014-03-01 12:45:00,
2014-03-01 07:46:00,47.7,47.2,30.06,North,0,0.0,0.0,98,0.00,,---,0.01,VWS V14.01,2014-03-01 12:46:00,
2014-03-01 07:49:00,48.2,47.7,30.06,North,0,0.0,0.0,98,0.00,,---,0.01,VWS V14.01,2014-03-01 12:49:00,
2014-03-01 07:50:00,48.3,47.8,30.06,North,0,0.0,0.0,98,0.00,,---,0.01,VWS V14.01,2014-03-01 12:50:00,
2014-03-01 07:51:00,48.5,48.0,30.06,North,0,0.0,0.0,98,0.00,,---,0.01,VWS V14.01,2014-03-01 12:51:00,
2014-03-01 07:53:00,48.5,48.0,30.06,North,0,0.0,0.0,98,0.00,,---,0.01,VWS V14.01,2014-03-01 12:53:00,
2014-03-01 07:54:00,48.9,48.4,30.06,North,0,0.0,0.0,98,0.00,,---,0.01,VWS V14.01,2014-03-01 12:54:00,
2014-03-01 07:56:00,49.1,48.8,30.06,North,0,0.0,0.0,99,0.00,,---,0.01,VWS V14.01,2014-03-01 12:56:00,
2014-03-01 07:57:00,49.4,49.1,30.06,North,0,0.0,0.0,99,0.00,,---,0.01,VWS V14.01,2014-03-01 12:57:00,
2014-03-01 07:59:00,49.8,49.5,30.06,North,0,0.0,0.0,99,0.00,,---,0.01,VWS V14.01,2014-03-01 12:59:00,
2014-03-01 08:01:00,50.2,49.7,30.07,North,0,0.0,0.0,98,0.00,,---,0.01,VWS V14.01,2014-03-01 13:01:00,
2014-03-01 08:02:00,50.4,49.9,30.07,North,0,0.0,0.0,98,0.00,,---,0.01,VWS V14.01,2014-03-01 13:02:00,
2014-03-01 08:03:00,50.4,49.9,30.07,North,0,0.0,0.0,98,0.00,,---,0.01,VWS V14.01,2014-03-01 13:03:00,
2014-03-01 08:05:00,50.8,50.0,30.07,North,0,0.0,0.0,97,0.00,,---,0.01,VWS V14.01,2014-03-01 13:05:00,
2014-03-01 08:06:00,51.0,50.2,30.07,North,0,0.0,0.0,97,0.00,,---,0.01,VWS V14.01,2014-03-01 13:06:00,
2014-03-01 08:07:00,51.1,50.3,30.07,North,0,0.0,0.0,97,0.00,,---,0.01,VWS V14.01,2014-03-01 13:07:00,
2014-03-01 08:08:00,51.3,50.5,30.07,North,0,0.0,0.0,97,0.00,,---,0.01,VWS V14.01,2014-03-01 13:08:00,
2014-03-01 08:10:00,51.7,51.2,30.07,North,0,0.0,0.0,98,0.00,,---,0.01,VWS V14.01,2014-03-01 13:10:00,
2014-03-01 08:12:00,52.0,51.2,30.07,North,0,0.0,0.0,97,0.00,,---,0.01,VWS V14.01,2014-03-01 13:12:00,
2014-03-01 08:13:00,52.2,51.4,30.07,North,0,0.0,0.0,97,0.00,,---,0.01,VWS V14.01,2014-03-01 13:13:00,
2014-03-01 08:14:00,52.3,51.5,30.07,North,0,0.0,0.0,97,0.00,,---,0.01,VWS V14.01,2014-03-01 13:14:00,
2014-03-01 08:16:00,52.9,52.1,30.08,North,0,0.0,0.0,97,0.00,,---,0.01,VWS V14.01,2014-03-01 13:16:00,
2014-03-01 08:17:00,52.9,52.1,30.08,North,0,0.0,0.0,97,0.00,,---,0.01,VWS V14.01,2014-03-01 13:17:00,
2014-03-01 08:18:00,53.2,52.1,30.08,North,0,0.0,0.0,96,0.00,,---,0.01,VWS V14.01,2014-03-01 13:18:00,
2014-03-01 08:19:00,53.2,52.1,30.08,North,0,0.0,0.0,96,0.00,,---,0.01,VWS V14.01,2014-03-01 13:19:00,
2014-03-01 08:21:00,53.6,52.2,30.08,North,0,0.0,0.0,95,0.00,,---,0.01,VWS V14.01,2014-03-01 13:21:00,
2014-03-01 08:22:00,53.8,52.4,30.08,North,0,0.0,0.0,95,0.00,,---,0.01,VWS V14.01,2014-03-01 13:22:00,
2014-03-01 08:23:00,53.9,52.5,30.08,North,0,0.0,0.0,95,0.00,,---,0.01,VWS V14.01,2014-03-01 13:23:00,
2014-03-01 08:24:00,54.1,52.7,30.08,North,0,0.0,0.0,95,0.00,,---,0.01,VWS V14.01,2014-03-01 13:24:00,
2014-03-01 08:25:00,54.2,52.5,30.08,North,0,0.0,0.0,94,0.00,,---,0.01,VWS V14.01,2014-03-01 13:25:00,
2014-03-01 08:26:00,54.4,52.7,30.08,North,0,0.0,0.0,94,0.00,,---,0.01,VWS V14.01,2014-03-01 13:26:00,
2014-03-01 08:27:00,54.5,52.8,30.08,North,0,0.0,0.0,94,0.00,,---,0.01,VWS V14.01,2014-03-01 13:27:00,
2014-03-01 08:28:00,54.7,53.0,30.08,North,0,0.0,0.0,94,0.00,,---,0.01,VWS V14.01,2014-03-01 13:28:00,
2014-03-01 08:30:00,55.0,53.0,30.09,North,0,0.0,0.0,93,0.00,,---,0.01,VWS V14.01,2014-03-01 13:30:00,
2014-03-01 08:31:00,55.1,53.1,30.09,North,0,0.0,0.0,93,0.00,,---,0.01,VWS V14.01,2014-03-01 13:31:00,
2014-03-01 08:32:00,55.3,53.0,30.09,North,0,0.0,0.0,92,0.00,,---,0.01,VWS V14.01,2014-03-01 13:32:00,
2014-03-01 08:35:00,55.9,53.6,30.09,North,0,0.0,0.0,92,0.00,,---,0.01,VWS V14.01,2014-03-01 13:35:00,
2014-03-01 08:36:00,56.0,53.4,30.09,North,0,0.0,0.0,91,0.00,,---,0.01,VWS V14.01,2014-03-01 13:36:00,
2014-03-01 08:37:00,56.2,53.3,30.09,North,0,0.0,0.0,90,0.00,,---,0.01,VWS V14.01,2014-03-01 13:37:00,
2014-03-01 08:38:00,56.3,53.4,30.09,North,0,0.0,0.0,90,0.00,,---,0.01,VWS V14.01,2014-03-01 13:38:00,
2014-03-01 08:40:00,56.6,53.7,30.09,North,0,0.0,0.0,90,0.00,,---,0.01,VWS V14.01,2014-03-01 13:40:00,
2014-03-01 08:41:00,56.7,53.8,30.09,North,0,0.0,0.0,90,0.00,,---,0.01,VWS V14.01,2014-03-01 13:41:00,
2014-03-01 08:43:00,57.2,53.4,30.09,North,0,0.0,0.0,87,0.00,,---,0.01,VWS V14.01,2014-03-01 13:43:00,
2014-03-01 08:44:00,57.2,53.4,30.09,North,0,0.0,0.0,87,0.00,,---,0.01,VWS V14.01,2014-03-01 13:44:00,
2014-03-01 08:46:00,57.5,53.3,30.09,North,0,0.0,0.0,86,0.00,,---,0.01,VWS V14.01,2014-03-01 13:46:00,
2014-03-01 08:47:00,57.5,53.3,30.09,North,0,0.0,0.0,86,0.00,,---,0.01,VWS V14.01,2014-03-01 13:47:00,
2014-03-01 08:49:00,58.0,53.8,30.09,North,0,0.0,0.0,86,0.00,,---,0.01,VWS V14.01,2014-03-01 13:49:00,
2014-03-01 08:50:00,58.1,53.6,30.09,North,0,0.0,0.0,85,0.00,,---,0.01,VWS V14.01,2014-03-01 13:50:00,
2014-03-01 08:51:00,58.3,53.8,30.09,North,0,0.0,0.0,85,0.00,,---,0.01,VWS V14.01,2014-03-01 13:51:00,
2014-03-01 08:52:00,58.3,53.5,30.09,North,0,0.0,0.0,84,0.00,,---,0.01,VWS V14.01,2014-03-01 13:52:00,
2014-03-01 08:54:00,58.6,53.8,30.09,North,0,0.0,0.0,84,0.00,,---,0.01,VWS V14.01,2014-03-01 13:54:00,
2014-03-01 08:55:00,58.7,53.9,30.09,North,0,0.0,0.0,84,0.00,,---,0.01,VWS V14.01,2014-03-01 13:55:00,
2014-03-01 08:56:00,58.9,54.1,30.09,North,0,0.0,0.0,84,0.00,,---,0.01,VWS V14.01,2014-03-01 13:56:00,
2014-03-01 08:57:00,59.0,54.2,30.09,North,0,0.0,0.0,84,0.00,,---,0.01,VWS V14.01,2014-03-01 13:57:00,
2014-03-01 08:59:00,59.5,53.7,30.09,North,0,0.0,0.0,81,0.00,,---,0.01,VWS V14.01,2014-03-01 13:59:00,
2014-03-01 09:00:00,59.5,53.7,30.09,North,0,0.0,0.0,81,0.00,,---,0.01,VWS V14.01,2014-03-01 14:00:00,
2014-03-01 09:02:00,59.9,54.1,30.10,North,0,0.0,0.0,81,0.00,,---,0.01,VWS V14.01,2014-03-01 14:02:00,
2014-03-01 09:05:00,60.4,54.5,30.10,North,0,0.0,0.0,81,0.00,,---,0.01,VWS V14.01,2014-03-01 14:05:00,
2014-03-01 09:06:00,60.5,54.0,30.10,North,0,0.0,0.0,79,0.00,,---,0.01,VWS V14.01,2014-03-01 14:06:00,
2014-03-01 09:07:00,60.7,54.2,30.10,North,0,0.0,0.0,79,0.00,,---,0.01,VWS V14.01,2014-03-01 14:07:00,
2014-03-01 09:11:00,61.0,54.5,30.10,North,0,0.0,5.0,79,0.00,,---,0.01,VWS V14.01,2014-03-01 14:11:00,
2014-03-01 09:12:00,61.3,54.4,30.10,North,0,0.0,5.0,78,0.00,,---,0.01,VWS V14.01,2014-03-01 14:12:00,
2014-03-01 09:13:00,61.3,54.4,30.10,North,0,0.0,5.0,78,0.00,,---,0.01,VWS V14.01,2014-03-01 14:13:00,
2014-03-01 09:14:00,61.5,54.6,30.10,North,0,0.0,5.0,78,0.00,,---,0.01,VWS V14.01,2014-03-01 14:14:00,
2014-03-01 09:16:00,62.1,54.8,30.11,North,0,0.0,5.0,77,0.00,,---,0.01,VWS V14.01,2014-03-01 14:16:00,
2014-03-01 09:17:00,62.3,55.0,30.11,North,0,0.0,5.0,77,0.00,,---,0.01,VWS V14.01,2014-03-01 14:17:00,
2014-03-01 09:18:00,62.4,54.8,30.11,North,0,0.0,5.0,76,0.00,,---,0.01,VWS V14.01,2014-03-01 14:18:00,
2014-03-01 09:20:00,62.7,54.7,30.11,North,0,0.0,5.0,75,0.00,,---,0.01,VWS V14.01,2014-03-01 14:20:00,
2014-03-01 09:22:00,63.1,55.1,30.11,North,0,0.0,5.0,75,0.00,,---,0.01,VWS V14.01,2014-03-01 14:22:00,
2014-03-01 09:23:00,63.2,55.2,30.11,North,0,0.0,5.0,75,0.00,,---,0.01,VWS V14.01,2014-03-01 14:23:00,
2014-03-01 09:24:00,63.2,55.5,30.11,North,0,0.0,5.0,76,0.00,,---,0.01,VWS V14.01,2014-03-01 14:24:00,
2014-03-01 09:26:00,63.5,55.1,30.11,North,0,4.0,5.0,74,0.00,,---,0.01,VWS V14.01,2014-03-01 14:26:00,
2014-03-01 09:28:00,64.0,55.6,30.11,North,0,4.0,5.0,74,0.00,,---,0.01,VWS V14.01,2014-03-01 14:28:00,
2014-03-01 09:29:00,64.0,54.8,30.11,North,0,0.0,5.0,72,0.00,,---,0.01,VWS V14.01,2014-03-01 14:29:00,
2014-03-01 09:30:00,64.2,55.4,30.11,North,0,0.0,5.0,73,0.00,,---,0.01,VWS V14.01,2014-03-01 14:30:00,
2014-03-01 09:31:00,64.3,55.1,30.11,North,0,0.0,5.0,72,0.00,,---,0.01,VWS V14.01,2014-03-01 14:31:00,
2014-03-01 09:33:00,64.5,55.3,30.11,North,0,0.0,5.0,72,0.00,,---,0.01,VWS V14.01,2014-03-01 14:33:00,
2014-03-01 09:34:00,64.7,55.1,30.11,North,0,0.0,5.0,71,0.00,,---,0.01,VWS V14.01,2014-03-01 14:34:00,
2014-03-01 09:36:00,64.8,55.2,30.11,North,0,0.0,5.0,71,0.00,,---,0.01,VWS V14.01,2014-03-01 14:36:00,
2014-03-01 09:38:00,65.0,54.6,30.11,North,0,0.0,5.0,69,0.00,,---,0.01,VWS V14.01,2014-03-01 14:38:00,
2014-03-01 09:39:00,65.2,54.8,30.11,North,0,0.0,5.0,69,0.00,,---,0.01,VWS V14.01,2014-03-01 14:39:00,
2014-03-01 09:40:00,65.2,54.4,30.11,North,0,0.0,5.0,68,0.00,,---,0.01,VWS V14.01,2014-03-01 14:40:00,
2014-03-01 09:41:00,65.3,54.9,30.11,North,0,0.0,5.0,69,0.00,,---,0.01,VWS V14.01,2014-03-01 14:41:00,
2014-03-01 09:43:00,65.3,54.9,30.11,North,0,0.0,5.0,69,0.00,,---,0.01,VWS V14.01,2014-03-01 14:43:00,
2014-03-01 09:46:00,65.3,54.9,30.12,North,0,0.0,5.0,69,0.00,,---,0.01,VWS V14.01,2014-03-01 14:46:00,
2014-03-01 09:47:00,65.3,54.9,30.12,North,0,0.0,5.0,69,0.00,,---,0.01,VWS V14.01,2014-03-01 14:47:00,
2014-03-01 09:48:00,65.5,55.1,30.12,North,0,0.0,5.0,69,0.00,,---,0.01,VWS V14.01,2014-03-01 14:48:00,
2014-03-01 09:51:00,65.6,55.2,30.12,North,0,0.0,5.0,69,0.00,,---,0.01,VWS V14.01,2014-03-01 14:51:00,
2014-03-01 09:52:00,66.0,55.5,30.12,North,0,5.0,5.0,69,0.00,,---,0.01,VWS V14.01,2014-03-01 14:52:00,
2014-03-01 09:53:00,66.1,55.7,30.12,North,0,0.0,5.0,69,0.00,,---,0.01,VWS V14.01,2014-03-01 14:53:00,
2014-03-01 09:56:00,66.8,55.5,30.12,North,0,0.0,5.0,67,0.00,,---,0.01,VWS V14.01,2014-03-01 14:56:00,
2014-03-01 09:57:00,67.1,55.8,30.12,North,0,0.0,5.0,67,0.00,,---,0.01,VWS V14.01,2014-03-01 14:57:00,
2014-03-01 09:58:00,67.3,55.6,30.12,North,0,0.0,5.0,66,0.00,,---,0.01,VWS V14.01,2014-03-01 14:58:00,
2014-03-01 09:59:00,67.4,55.2,30.12,North,0,0.0,5.0,65,0.00,,---,0.01,VWS V14.01,2014-03-01 14:59:00,
2014-03-01 10:02:00,67.8,54.8,30.12,North,0,0.0,0.0,63,0.00,,---,0.01,VWS V14.01,2014-03-01 15:02:00,
2014-03-01 10:03:00,67.8,54.8,30.12,North,0,0.0,6.0,63,0.00,,---,0.01,VWS V14.01,2014-03-01 15:03:00,
2014-03-01 10:04:00,67.9,54.8,30.12,North,0,0.0,6.0,63,0.00,,---,0.01,VWS V14.01,2014-03-01 15:04:00,
2014-03-01 10:08:00,68.3,53.9,30.12,North,0,0.0,6.0,60,0.00,,---,0.01,VWS V14.01,2014-03-01 15:08:00,
2014-03-01 10:09:00,68.3,53.9,30.12,North,0,0.0,6.0,60,0.00,,---,0.01,VWS V14.01,2014-03-01 15:09:00,
2014-03-01 10:10:00,68.4,53.5,30.12,North,0,0.0,6.0,59,0.00,,---,0.01,VWS V14.01,2014-03-01 15:10:00,
2014-03-01 10:15:00,68.8,54.4,30.12,North,0,0.0,6.0,60,0.00,,---,0.01,VWS V14.01,2014-03-01 15:15:00,
2014-03-01 10:16:00,68.9,54.5,30.12,North,0,1.0,6.0,60,0.00,,---,0.01,VWS V14.01,2014-03-01 15:16:00,
2014-03-01 10:18:00,69.3,54.8,30.12,North,0,0.0,6.0,60,0.00,,---,0.01,VWS V14.01,2014-03-01 15:18:00,
2014-03-01 10:20:00,69.6,53.7,30.12,North,0,0.0,6.0,57,0.00,,---,0.01,VWS V14.01,2014-03-01 15:20:00,
2014-03-01 10:21:00,69.9,54.5,30.12,North,0,0.0,6.0,58,0.00,,---,0.01,VWS V14.01,2014-03-01 15:21:00,
2014-03-01 10:22:00,69.9,54.5,30.12,North,0,0.0,6.0,58,0.00,,---,0.01,VWS V14.01,2014-03-01 15:22:00,
2014-03-01 10:23:00,70.1,53.7,30.12,North,0,0.0,6.0,56,0.00,,---,0.01,VWS V14.01,2014-03-01 15:23:00,
2014-03-01 10:26:00,70.3,53.4,30.12,North,0,0.0,6.0,55,0.00,,---,0.01,VWS V14.01,2014-03-01 15:26:00,
2014-03-01 10:27:00,70.3,53.4,30.12,North,0,3.0,6.0,55,0.00,,---,0.01,VWS V14.01,2014-03-01 15:27:00,
2014-03-01 10:28:00,70.3,53.4,30.12,North,0,0.0,6.0,55,0.00,,---,0.01,VWS V14.01,2014-03-01 15:28:00,
2014-03-01 10:29:00,70.4,53.0,30.12,North,0,3.0,6.0,54,0.00,,---,0.01,VWS V14.01,2014-03-01 15:29:00,
2014-03-01 10:32:00,70.8,51.3,30.12,North,0,0.0,7.0,50,0.00,,---,0.01,VWS V14.01,2014-03-01 15:32:00,
2014-03-01 10:33:00,70.8,50.7,30.12,North,0,0.0,7.0,49,0.00,,---,0.01,VWS V14.01,2014-03-01 15:33:00,
2014-03-01 10:34:00,70.8,49.0,30.12,North,0,8.0,8.0,46,0.00,,---,0.01,VWS V14.01,2014-03-01 15:34:00,
2014-03-01 10:35:00,70.6,48.8,30.12,North,0,0.0,8.0,46,0.00,,---,0.01,VWS V14.01,2014-03-01 15:35:00,
2014-03-01 10:36:00,70.3,48.6,30.12,North,0,0.0,8.0,46,0.00,,---,0.01,VWS V14.01,2014-03-01 15:36:00,
2014-03-01 10:37:00,70.1,49.5,30.12,North,0,0.0,8.0,48,0.00,,---,0.01,VWS V14.01,2014-03-01 15:37:00,
2014-03-01 10:39:00,69.6,49.6,30.12,North,0,0.0,8.0,49,0.00,,---,0.01,VWS V14.01,2014-03-01 15:39:00,
2014-03-01 10:40:00,69.4,50.0,30.12,North,0,0.0,8.0,50,0.00,,---,0.01,VWS V14.01,2014-03-01 15:40:00,
2014-03-01 10:41:00,69.4,50.5,30.12,North,0,0.0,8.0,51,0.00,,---,0.01,VWS V14.01,2014-03-01 15:41:00,
2014-03-01 10:42:00,69.4,50.5,30.12,North,0,0.0,8.0,51,0.00,,---,0.01,VWS V14.01,2014-03-01 15:42:00,
2014-03-01 10:45:00,69.6,49.6,30.12,North,0,0.0,8.0,49,0.00,,---,0.01,VWS V14.01,2014-03-01 15:45:00,
2014-03-01 10:47:00,69.8,49.8,30.13,North,0,0.0,8.0,49,0.00,,---,0.01,VWS V14.01,2014-03-01 15:47:00,
2014-03-01 10:48:00,69.9,50.4,30.13,North,0,0.0,8.0,50,0.00,,---,0.01,VWS V14.01,2014-03-01 15:48:00,
2014-03-01 10:50:00,70.4,50.3,30.13,North,0,0.0,8.0,49,0.00,,---,0.01,VWS V14.01,2014-03-01 15:50:00,
2014-03-01 10:51:00,70.4,50.3,30.13,North,0,0.0,8.0,49,0.00,,---,0.01,VWS V14.01,2014-03-01 15:51:00,
2014-03-01 10:53:00,70.8,46.6,30.13,North,0,0.0,8.0,42,0.00,,---,0.01,VWS V14.01,2014-03-01 15:53:00,
2014-03-01 10:55:00,70.9,47.3,30.13,North,0,0.0,8.0,43,0.00,,---,0.01,VWS V14.01,2014-03-01 15:55:00,
2014-03-01 10:56:00,70.9,47.9,30.13,North,0,0.0,8.0,44,0.00,,---,0.01,VWS V14.01,2014-03-01 15:56:00,
2014-03-01 10:57:00,71.1,48.7,30.13,North,0,0.0,8.0,45,0.00,,---,0.01,VWS V14.01,2014-03-01 15:57:00,
2014-03-01 11:00:00,71.1,49.3,30.13,North,0,0.0,8.0,46,0.00,,---,0.01,VWS V14.01,2014-03-01 16:00:00,
2014-03-01 11:01:00,71.3,50.6,30.13,North,0,0.0,0.0,48,0.00,,---,0.01,VWS V14.01,2014-03-01 16:01:00,
2014-03-01 11:02:00,71.3,50.6,30.13,North,0,0.0,0.0,48,0.00,,---,0.01,VWS V14.01,2014-03-01 16:02:00,
2014-03-01 11:03:00,71.6,51.5,30.13,North,0,9.0,9.0,49,0.00,,---,0.01,VWS V14.01,2014-03-01 16:03:00,
2014-03-01 11:07:00,72.0,50.7,30.13,North,0,0.0,10.0,47,0.00,,---,0.01,VWS V14.01,2014-03-01 16:07:00,
2014-03-01 11:08:00,72.1,51.3,30.13,North,0,0.0,10.0,48,0.00,,---,0.01,VWS V14.01,2014-03-01 16:08:00,
2014-03-01 11:11:00,72.3,51.5,30.13,North,0,0.0,10.0,48,0.00,,---,0.01,VWS V14.01,2014-03-01 16:11:00,
2014-03-01 11:12:00,72.5,51.7,30.13,North,0,0.0,10.0,48,0.00,,---,0.01,VWS V14.01,2014-03-01 16:12:00,
2014-03-01 11:13:00,72.7,50.8,30.13,North,0,0.0,10.0,46,0.00,,---,0.01,VWS V14.01,2014-03-01 16:13:00,
2014-03-01 11:14:00,72.7,50.8,30.13,North,0,0.0,10.0,46,0.00,,---,0.01,VWS V14.01,2014-03-01 16:14:00,
2014-03-01 11:15:00,72.7,49.5,30.12,North,0,0.0,10.0,44,0.00,,---,0.01,VWS V14.01,2014-03-01 16:15:00,
2014-03-01 11:17:00,72.8,48.4,30.12,North,0,0.0,10.0,42,0.00,,---,0.01,VWS V14.01,2014-03-01 16:17:00,
2014-03-01 11:19:00,73.0,47.9,30.12,North,0,0.0,10.0,41,0.00,,---,0.01,VWS V14.01,2014-03-01 16:19:00,
2014-03-01 11:20:00,73.2,49.4,30.12,North,0,0.0,10.0,43,0.00,,---,0.01,VWS V14.01,2014-03-01 16:20:00,
2014-03-01 11:21:00,73.2,48.8,30.12,North,0,0.0,10.0,42,0.00,,---,0.01,VWS V14.01,2014-03-01 16:21:00,
2014-03-01 11:22:00,73.2,48.1,30.12,North,0,0.0,10.0,41,0.00,,---,0.01,VWS V14.01,2014-03-01 16:22:00,
2014-03-01 11:23:00,73.0,46.6,30.12,North,0,0.0,10.0,39,0.00,,---,0.01,VWS V14.01,2014-03-01 16:23:00,
2014-03-01 11:25:00,73.0,47.9,30.12,North,0,6.0,10.0,41,0.00,,---,0.01,VWS V14.01,2014-03-01 16:25:00,
2014-03-01 11:26:00,72.8,47.8,30.12,NNE,23,5.0,10.0,41,0.00,,---,0.01,VWS V14.01,2014-03-01 16:26:00,
2014-03-01 11:28:00,72.3,48.6,30.12,NNE,18,0.0,10.0,43,0.00,,---,0.01,VWS V14.01,2014-03-01 16:28:00,
2014-03-01 11:29:00,72.0,48.9,30.12,NNE,15,0.0,10.0,44,0.00,,---,0.01,VWS V14.01,2014-03-01 16:29:00,
2014-03-01 11:31:00,71.8,49.9,30.12,North,0,0.0,10.0,46,0.00,,---,0.01,VWS V14.01,2014-03-01 16:31:00,
2014-03-01 11:32:00,71.8,49.3,30.12,North,0,0.0,10.0,45,0.00,,---,0.01,VWS V14.01,2014-03-01 16:32:00,
2014-03-01 11:33:00,71.6,47.9,30.12,North,0,0.0,10.0,43,0.00,,---,0.01,VWS V14.01,2014-03-01 16:33:00,
2014-03-01 11:34:00,71.6,49.2,30.12,North,0,0.0,10.0,45,0.00,,---,0.01,VWS V14.01,2014-03-01 16:34:00,
2014-03-01 11:37:00,72.0,50.7,30.12,North,0,0.0,10.0,47,0.00,,---,0.01,VWS V14.01,2014-03-01 16:37:00,
2014-03-01 11:38:00,72.1,50.2,30.12,North,0,0.0,10.0,46,0.00,,---,0.01,VWS V14.01,2014-03-01 16:38:00,
2014-03-01 11:40:00,72.5,51.2,30.12,North,0,0.0,10.0,47,0.00,,---,0.01,VWS V14.01,2014-03-01 16:40:00,
2014-03-01 11:42:00,72.3,50.4,30.12,North,3,4.0,10.0,46,0.00,,---,0.01,VWS V14.01,2014-03-01 16:42:00,
2014-03-01 11:43:00,72.1,48.4,30.12,North,0,3.0,10.0,43,0.00,,---,0.01,VWS V14.01,2014-03-01 16:43:00,
2014-03-01 11:45:00,71.8,48.7,30.12,North,0,4.0,10.0,44,0.00,,---,0.01,VWS V14.01,2014-03-01 16:45:00,
2014-03-01 11:47:00,72.0,48.9,30.11,North,0,4.0,10.0,44,0.00,,---,0.01,VWS V14.01,2014-03-01 16:47:00,
2014-03-01 11:48:00,71.8,48.7,30.11,North,0,1.0,10.0,44,0.00,,---,0.01,VWS V14.01,2014-03-01 16:48:00,
2014-03-01 11:49:00,71.6,49.8,30.11,North,0,0.0,10.0,46,0.00,,---,0.01,VWS V14.01,2014-03-01 16:49:00,
2014-03-01 11:51:00,71.6,49.8,30.11,North,0,6.0,10.0,46,0.00,,---,0.01,VWS V14.01,2014-03-01 16:51:00,
2014-03-01 11:53:00,71.5,50.2,30.11,North,0,3.0,10.0,47,0.00,,---,0.01,VWS V14.01,2014-03-01 16:53:00,
2014-03-01 11:55:00,71.3,50.0,30.11,North,0,0.0,10.0,47,0.00,,---,0.01,VWS V14.01,2014-03-01 16:55:00,
2014-03-01 11:57:00,71.1,49.9,30.11,North,0,2.0,10.0,47,0.00,,---,0.01,VWS V14.01,2014-03-01 16:57:00,
2014-03-01 11:58:00,71.1,49.9,30.11,North,1,0.0,10.0,47,0.00,,---,0.01,VWS V14.01,2014-03-01 16:58:00,
2014-03-01 12:01:00,71.3,48.9,30.11,North,0,0.0,10.0,45,0.00,,---,0.01,VWS V14.01,2014-03-01 17:01:00,
2014-03-01 12:03:00,71.3,49.5,30.11,North,0,0.0,0.0,46,0.00,,---,0.01,VWS V14.01,2014-03-01 17:03:00,
2014-03-01 12:06:00,71.6,49.8,30.11,North,0,0.0,6.0,46,0.00,,---,0.01,VWS V14.01,2014-03-01 17:06:00,
2014-03-01 12:08:00,71.8,49.3,30.11,North,0,6.0,10.0,45,0.00,,---,0.01,VWS V14.01,2014-03-01 17:08:00,
2014-03-01 12:09:00,71.8,48.7,30.11,North,0,4.0,10.0,44,0.00,,---,0.01,VWS V14.01,2014-03-01 17:09:00,
2014-03-01 12:11:00,71.8,49.3,30.11,North,0,5.0,11.0,45,0.00,,---,0.01,VWS V14.01,2014-03-01 17:11:00,
2014-03-01 12:12:00,71.8,48.7,30.11,North,0,8.0,11.0,44,0.00,,---,0.01,VWS V14.01,2014-03-01 17:12:00,
2014-03-01 12:13:00,71.6,47.3,30.11,North,0,0.0,11.0,42,0.00,,---,0.01,VWS V14.01,2014-03-01 17:13:00,
2014-03-01 12:15:00,71.6,47.3,30.11,North,0,0.0,11.0,42,0.00,,---,0.01,VWS V14.01,2014-03-01 17:15:00,
2014-03-01 12:16:00,71.6,48.6,30.10,North,0,0.0,11.0,44,0.00,,---,0.01,VWS V14.01,2014-03-01 17:16:00,
2014-03-01 12:17:00,71.6,47.3,30.10,North,0,0.0,11.0,42,0.00,,---,0.01,VWS V14.01,2014-03-01 17:17:00,
2014-03-01 12:18:00,72.0,47.0,30.10,North,0,6.0,11.0,41,0.00,,---,0.01,VWS V14.01,2014-03-01 17:18:00,
2014-03-01 12:19:00,72.0,47.0,30.10,North,0,8.0,11.0,41,0.00,,---,0.01,VWS V14.01,2014-03-01 17:19:00,
2014-03-01 12:20:00,72.3,47.3,30.10,North,0,4.0,11.0,41,0.00,,---,0.01,VWS V14.01,2014-03-01 17:20:00,
2014-03-01 12:21:00,72.7,46.3,30.10,North,0,7.0,11.0,39,0.00,,---,0.01,VWS V14.01,2014-03-01 17:21:00,
2014-03-01 12:23:00,73.0,45.9,30.10,North,0,0.0,11.0,38,0.00,,---,0.01,VWS V14.01,2014-03-01 17:23:00,
2014-03-01 12:25:00,73.3,47.5,30.10,North,0,8.0,11.0,40,0.00,,---,0.01,VWS V14.01,2014-03-01 17:25:00,
2014-03-01 12:26:00,73.7,46.5,30.10,North,0,0.0,11.0,38,0.00,,---,0.01,VWS V14.01,2014-03-01 17:26:00,
2014-03-01 12:27:00,73.7,46.5,30.10,North,0,1.0,11.0,38,0.00,,---,0.01,VWS V14.01,2014-03-01 17:27:00,
2014-03-01 12:28:00,73.5,48.4,30.10,North,0,5.0,11.0,41,0.00,,---,0.01,VWS V14.01,2014-03-01 17:28:00,
2014-03-01 12:29:00,73.5,48.4,30.10,North,0,0.0,11.0,41,0.00,,---,0.01,VWS V14.01,2014-03-01 17:29:00,
2014-03-01 12:31:00,73.5,47.7,30.09,North,0,4.0,11.0,40,0.00,,---,0.01,VWS V14.01,2014-03-01 17:31:00,
2014-03-01 12:32:00,73.9,48.7,30.09,North,0,6.0,11.0,41,0.00,,---,0.01,VWS V14.01,2014-03-01 17:32:00,
2014-03-01 12:33:00,73.9,48.1,30.09,North,0,0.0,11.0,40,0.00,,---,0.01,VWS V14.01,2014-03-01 17:33:00,
2014-03-01 12:34:00,74.0,46.8,30.09,North,0,0.0,11.0,38,0.00,,---,0.01,VWS V14.01,2014-03-01 17:34:00,
2014-03-01 12:35:00,74.0,47.5,30.09,North,0,3.0,11.0,39,0.00,,---,0.01,VWS V14.01,2014-03-01 17:35:00,
2014-03-01 12:36:00,74.2,47.7,30.09,North,0,7.0,11.0,39,0.00,,---,0.01,VWS V14.01,2014-03-01 17:36:00,
2014-03-01 12:37:00,74.4,47.9,30.09,North,0,0.0,11.0,39,0.00,,---,0.01,VWS V14.01,2014-03-01 17:37:00,
2014-03-01 12:39:00,74.6,48.7,30.09,North,0,0.0,11.0,40,0.00,,---,0.01,VWS V14.01,2014-03-01 17:39:00,
2014-03-01 12:40:00,74.6,48.7,30.09,North,0,2.0,11.0,40,0.00,,---,0.01,VWS V14.01,2014-03-01 17:40:00,
2014-03-01 12:42:00,74.4,47.9,30.09,North,0,0.0,11.0,39,0.00,,---,0.01,VWS V14.01,2014-03-01 17:42:00,
2014-03-01 12:43:00,74.2,49.0,30.09,North,0,0.0,11.0,41,0.00,,---,0.01,VWS V14.01,2014-03-01 17:43:00,
2014-03-01 12:45:00,74.2,49.0,30.09,North,0,0.0,11.0,41,0.00,,---,0.01,VWS V14.01,2014-03-01 17:45:00,
2014-03-01 12:46:00,74.2,49.0,30.09,North,0,0.0,11.0,41,0.00,,---,0.01,VWS V14.01,2014-03-01 17:46:00,
2014-03-01 12:47:00,74.6,48.0,30.09,North,0,0.0,11.0,39,0.00,,---,0.01,VWS V14.01,2014-03-01 17:47:00,
2014-03-01 12:48:00,74.9,48.3,30.09,North,0,0.0,11.0,39,0.00,,---,0.01,VWS V14.01,2014-03-01 17:48:00,
2014-03-01 12:49:00,74.9,48.3,30.09,North,0,1.0,11.0,39,0.00,,---,0.01,VWS V14.01,2014-03-01 17:49:00,
2014-03-01 12:52:00,75.1,49.2,30.09,North,0,7.0,11.0,40,0.00,,---,0.01,VWS V14.01,2014-03-01 17:52:00,
2014-03-01 12:53:00,75.1,47.8,30.09,North,0,8.0,11.0,38,0.00,,---,0.01,VWS V14.01,2014-03-01 17:53:00,
2014-03-01 12:54:00,75.1,47.1,30.09,North,0,8.0,11.0,37,0.00,,---,0.01,VWS V14.01,2014-03-01 17:54:00,
2014-03-01 12:55:00,75.3,47.3,30.09,North,0,4.0,11.0,37,0.00,,---,0.01,VWS V14.01,2014-03-01 17:55:00,
2014-03-01 12:58:00,75.1,48.5,30.09,North,0,4.0,11.0,39,0.00,,---,0.01,VWS V14.01,2014-03-01 17:58:00,
2014-03-01 13:00:00,75.3,48.7,30.09,North,0,8.0,11.0,39,0.00,,---,0.01,VWS V14.01,2014-03-01 18:00:00,
2014-03-01 13:01:00,75.3,48.7,30.08,North,0,1.0,1.0,39,0.00,,---,0.01,VWS V14.01,2014-03-01 18:01:00,
2014-03-01 13:03:00,75.3,48.0,30.08,North,0,6.0,9.0,38,0.00,,---,0.01,VWS V14.01,2014-03-01 18:03:00,
2014-03-01 13:05:00,75.4,46.6,30.08,North,0,4.0,9.0,36,0.00,,---,0.01,VWS V14.01,2014-03-01 18:05:00,
2014-03-01 13:06:00,75.6,47.5,30.08,North,0,0.0,9.0,37,0.00,,---,0.01,VWS V14.01,2014-03-01 18:06:00,
2014-03-01 13:08:00,75.4,47.3,30.08,North,0,0.0,9.0,37,0.00,,---,0.01,VWS V14.01,2014-03-01 18:08:00,
2014-03-01 13:10:00,75.4,48.8,30.08,North,0,4.0,9.0,39,0.00,,---,0.01,VWS V14.01,2014-03-01 18:10:00,
2014-03-01 13:12:00,75.4,48.8,30.08,North,0,0.0,9.0,39,0.00,,---,0.01,VWS V14.01,2014-03-01 18:12:00,
2014-03-01 13:13:00,75.4,46.6,30.08,North,0,0.0,9.0,36,0.00,,---,0.01,VWS V14.01,2014-03-01 18:13:00,
2014-03-01 13:14:00,75.4,47.3,30.08,North,0,0.0,9.0,37,0.00,,---,0.01,VWS V14.01,2014-03-01 18:14:00,
2014-03-01 13:16:00,75.4,47.3,30.07,North,0,9.0,9.0,37,0.00,,---,0.01,VWS V14.01,2014-03-01 18:16:00,
2014-03-01 13:18:00,75.3,48.0,30.07,North,0,9.0,10.0,38,0.00,,---,0.01,VWS V14.01,2014-03-01 18:18:00,
2014-03-01 13:19:00,74.7,47.4,30.07,North,7,1.0,10.0,38,0.00,,---,0.01,VWS V14.01,2014-03-01 18:19:00,
2014-03-01 13:20:00,74.2,47.0,30.07,North,7,0.0,10.0,38,0.00,,---,0.01,VWS V14.01,2014-03-01 18:20:00,
2014-03-01 13:21:00,74.0,46.8,30.07,North,7,0.0,10.0,38,0.00,,---,0.01,VWS V14.01,2014-03-01 18:21:00,
2014-03-01 13:23:00,73.9,48.1,30.07,North,0,6.0,10.0,40,0.00,,---,0.01,VWS V14.01,2014-03-01 18:23:00,
2014-03-01 13:24:00,73.9,48.1,30.07,North,0,0.0,10.0,40,0.00,,---,0.01,VWS V14.01,2014-03-01 18:24:00,
2014-03-01 13:25:00,74.0,48.8,30.07,North,0,5.0,10.0,41,0.00,,---,0.01,VWS V14.01,2014-03-01 18:25:00,
2014-03-01 13:27:00,74.0,48.2,30.07,North,0,1.0,10.0,40,0.00,,---,0.01,VWS V14.01,2014-03-01 18:27:00,
2014-03-01 13:29:00,74.4,49.2,30.07,North,0,6.0,10.0,41,0.00,,---,0.01,VWS V14.01,2014-03-01 18:29:00,
2014-03-01 13:30:00,74.7,48.1,30.06,North,0,5.0,10.0,39,0.00,,---,0.01,VWS V14.01,2014-03-01 18:30:00,
2014-03-01 13:33:00,75.3,48.7,30.06,North,0,0.0,10.0,39,0.00,,---,0.01,VWS V14.01,2014-03-01 18:33:00,
2014-03-01 13:34:00,75.3,48.0,30.06,North,0,10.0,12.0,38,0.00,,---,0.01,VWS V14.01,2014-03-01 18:34:00,
2014-03-01 13:35:00,75.3,48.7,30.06,North,0,4.0,12.0,39,0.00,,---,0.01,VWS V14.01,2014-03-01 18:35:00,
2014-03-01 13:36:00,75.1,47.8,30.06,North,0,5.0,12.0,38,0.00,,---,0.01,VWS V14.01,2014-03-01 18:36:00,
2014-03-01 13:40:00,74.9,48.3,30.06,North,0,0.0,12.0,39,0.00,,---,0.01,VWS V14.01,2014-03-01 18:40:00,
2014-03-01 13:41:00,75.1,47.1,30.06,North,0,0.0,12.0,37,0.00,,---,0.01,VWS V14.01,2014-03-01 18:41:00,
2014-03-01 13:42:00,75.1,47.1,30.06,North,0,0.0,12.0,37,0.00,,---,0.01,VWS V14.01,2014-03-01 18:42:00,
2014-03-01 13:44:00,75.4,47.3,30.06,North,0,0.0,12.0,37,0.00,,---,0.01,VWS V14.01,2014-03-01 18:44:00,
2014-03-01 13:45:00,75.6,46.8,30.06,North,0,1.0,12.0,36,0.00,,---,0.01,VWS V14.01,2014-03-01 18:45:00,
2014-03-01 13:47:00,75.6,46.8,30.06,North,0,0.0,12.0,36,0.00,,---,0.01,VWS V14.01,2014-03-01 18:47:00,
2014-03-01 13:48:00,75.6,46.8,30.06,North,0,0.0,12.0,36,0.00,,---,0.01,VWS V14.01,2014-03-01 18:48:00,
2014-03-01 13:49:00,75.4,46.6,30.06,North,0,6.0,12.0,36,0.00,,---,0.01,VWS V14.01,2014-03-01 18:49:00,
2014-03-01 13:50:00,75.3,45.8,30.06,North,0,0.0,12.0,35,0.00,,---,0.01,VWS V14.01,2014-03-01 18:50:00,
2014-03-01 13:51:00,75.3,46.5,30.06,North,0,6.0,12.0,36,0.00,,---,0.01,VWS V14.01,2014-03-01 18:51:00,
2014-03-01 13:53:00,75.3,46.5,30.06,North,0,6.0,12.0,36,0.00,,---,0.01,VWS V14.01,2014-03-01 18:53:00,
2014-03-01 13:55:00,75.4,46.6,30.06,North,0,0.0,12.0,36,0.00,,---,0.01,VWS V14.01,2014-03-01 18:55:00,
2014-03-01 13:57:00,75.6,46.8,30.06,North,0,5.0,12.0,36,0.00,,---,0.01,VWS V14.01,2014-03-01 18:57:00,
2014-03-01 13:59:00,76.0,46.4,30.06,North,0,2.0,12.0,35,0.00,,---,0.01,VWS V14.01,2014-03-01 18:59:00,
2014-03-01 14:00:00,76.0,45.6,30.06,North,0,0.0,12.0,34,0.00,,---,0.01,VWS V14.01,2014-03-01 19:00:00,
2014-03-01 14:01:00,76.1,47.2,30.05,North,0,0.0,12.0,36,0.00,,---,0.01,VWS V14.01,2014-03-01 19:01:00,
2014-03-01 14:04:00,76.7,46.2,30.05,North,0,8.0,8.0,34,0.00,,---,0.01,VWS V14.01,2014-03-01 19:04:00,
2014-03-01 14:06:00,77.0,44.9,30.05,North,0,2.0,9.0,32,0.00,,---,0.01,VWS V14.01,2014-03-01 19:06:00,
2014-03-01 14:09:00,77.2,45.9,30.05,North,0,0.0,9.0,33,0.00,,---,0.01,VWS V14.01,2014-03-01 19:09:00,
2014-03-01 14:10:00,77.2,45.9,30.05,North,0,0.0,9.0,33,0.00,,---,0.01,VWS V14.01,2014-03-01 19:10:00,
2014-03-01 14:12:00,77.4,46.1,30.05,North,0,6.0,10.0,33,0.00,,---,0.01,VWS V14.01,2014-03-01 19:12:00,
2014-03-01 14:13:00,77.4,45.3,30.05,North,0,0.0,10.0,32,0.00,,---,0.01,VWS V14.01,2014-03-01 19:13:00,
2014-03-01 14:15:00,77.4,45.3,30.05,North,0,5.0,10.0,32,0.00,,---,0.01,VWS V14.01,2014-03-01 19:15:00,
2014-03-01 14:16:00,77.4,45.3,30.05,North,0,4.0,10.0,32,0.00,,---,0.01,VWS V14.01,2014-03-01 19:16:00,
2014-03-01 14:17:00,77.4,44.4,30.05,North,0,4.0,10.0,31,0.00,,---,0.01,VWS V14.01,2014-03-01 19:17:00,
2014-03-01 14:18:00,77.6,44.6,30.05,North,0,3.0,10.0,31,0.00,,---,0.01,VWS V14.01,2014-03-01 19:18:00,
2014-03-01 14:20:00,77.4,44.4,30.05,North,0,11.0,11.0,31,0.00,,---,0.01,VWS V14.01,2014-03-01 19:20:00,
2014-03-01 14:21:00,77.2,45.9,30.05,North,0,6.0,11.0,33,0.00,,---,0.01,VWS V14.01,2014-03-01 19:21:00,
2014-03-01 14:24:00,76.7,45.5,30.05,North,0,1.0,11.0,33,0.00,,---,0.01,VWS V14.01,2014-03-01 19:24:00,
2014-03-01 14:25:00,76.5,44.5,30.05,North,0,8.0,11.0,32,0.00,,---,0.01,VWS V14.01,2014-03-01 19:25:00,
2014-03-01 14:26:00,76.5,44.5,30.05,North,1,7.0,11.0,32,0.00,,---,0.01,VWS V14.01,2014-03-01 19:26:00,
2014-03-01 14:27:00,76.3,45.9,30.05,North,0,4.0,11.0,34,0.00,,---,0.01,VWS V14.01,2014-03-01 19:27:00,
2014-03-01 14:29:00,76.0,46.4,30.05,North,0,10.0,14.0,35,0.00,,---,0.01,VWS V14.01,2014-03-01 19:29:00,
2014-03-01 14:31:00,76.0,45.6,30.04,North,0,0.0,14.0,34,0.00,,---,0.01,VWS V14.01,2014-03-01 19:31:00,
2014-03-01 14:32:00,76.0,44.8,30.04,North,0,0.0,14.0,33,0.00,,---,0.01,VWS V14.01,2014-03-01 19:32:00,
2014-03-01 14:33:00,76.0,45.6,30.04,North,0,0.0,14.0,34,0.00,,---,0.01,VWS V14.01,2014-03-01 19:33:00,
2014-03-01 14:37:00,76.3,46.7,30.04,North,0,7.0,14.0,35,0.00,,---,0.01,VWS V14.01,2014-03-01 19:37:00,
2014-03-01 14:38:00,76.5,46.1,30.04,North,0,2.0,14.0,34,0.00,,---,0.01,VWS V14.01,2014-03-01 19:38:00,
2014-03-01 14:39:00,76.7,47.0,30.04,North,0,8.0,14.0,35,0.00,,---,0.01,VWS V14.01,2014-03-01 19:39:00,
2014-03-01 14:42:00,76.8,45.5,30.04,North,0,6.0,14.0,33,0.00,,---,0.01,VWS V14.01,2014-03-01 19:42:00,
2014-03-01 14:43:00,76.8,43.9,30.04,North,0,0.0,14.0,31,0.00,,---,0.01,VWS V14.01,2014-03-01 19:43:00,
2014-03-01 14:44:00,76.5,45.3,30.04,North,0,0.0,14.0,33,0.00,,---,0.01,VWS V14.01,2014-03-01 19:44:00,
2014-03-01 14:45:00,76.5,46.1,30.04,North,0,6.0,14.0,34,0.00,,---,0.01,VWS V14.01,2014-03-01 19:45:00,
2014-03-01 14:46:00,76.3,45.9,30.04,North,0,5.0,14.0,34,0.00,,---,0.01,VWS V14.01,2014-03-01 19:46:00,
2014-03-01 14:48:00,76.1,45.7,30.04,North,0,0.0,14.0,34,0.00,,---,0.01,VWS V14.01,2014-03-01 19:48:00,
2014-03-01 14:49:00,76.1,45.7,30.04,North,0,10.0,14.0,34,0.00,,---,0.01,VWS V14.01,2014-03-01 19:49:00,
2014-03-01 14:50:00,76.1,45.7,30.04,North,0,4.0,14.0,34,0.00,,---,0.01,VWS V14.01,2014-03-01 19:50:00,
2014-03-01 14:53:00,76.5,46.1,30.04,North,0,1.0,14.0,34,0.00,,---,0.01,VWS V14.01,2014-03-01 19:53:00,
2014-03-01 14:54:00,76.7,46.2,30.04,North,0,0.0,14.0,34,0.00,,---,0.01,VWS V14.01,2014-03-01 19:54:00,
2014-03-01 14:56:00,77.0,45.7,30.04,North,0,2.0,14.0,33,0.00,,---,0.01,VWS V14.01,2014-03-01 19:56:00,
2014-03-01 14:57:00,77.2,45.9,30.04,North,0,9.0,14.0,33,0.00,,---,0.01,VWS V14.01,2014-03-01 19:57:00,
2014-03-01 14:59:00,77.4,45.3,30.04,North,0,5.0,14.0,32,0.00,,---,0.01,VWS V14.01,2014-03-01 19:59:00,
2014-03-01 15:00:00,77.6,46.2,30.04,North,0,7.0,14.0,33,0.00,,---,0.01,VWS V14.01,2014-03-01 20:00:00,
2014-03-01 15:01:00,77.6,45.4,30.04,North,0,5.0,14.0,32,0.00,,---,0.01,VWS V14.01,2014-03-01 20:01:00,
2014-03-01 15:02:00,77.4,46.1,30.04,North,0,6.0,10.0,33,0.00,,---,0.01,VWS V14.01,2014-03-01 20:02:00,
2014-03-01 15:04:00,77.0,46.5,30.04,North,0,0.0,10.0,34,0.00,,---,0.01,VWS V14.01,2014-03-01 20:04:00,
2014-03-01 15:06:00,77.2,46.7,30.04,North,0,2.0,10.0,34,0.00,,---,0.01,VWS V14.01,2014-03-01 20:06:00,
2014-03-01 15:07:00,77.2,45.9,30.04,North,0,6.0,10.0,33,0.00,,---,0.01,VWS V14.01,2014-03-01 20:07:00,
2014-03-01 15:08:00,77.2,45.9,30.04,North,0,1.0,10.0,33,0.00,,---,0.01,VWS V14.01,2014-03-01 20:08:00,
2014-03-01 15:10:00,76.7,46.2,30.04,North,0,5.0,10.0,34,0.00,,---,0.01,VWS V14.01,2014-03-01 20:10:00,
2014-03-01 15:11:00,76.5,46.1,30.04,North,0,6.0,10.0,34,0.00,,---,0.01,VWS V14.01,2014-03-01 20:11:00,
2014-03-01 15:12:00,76.5,46.8,30.04,North,0,0.0,10.0,35,0.00,,---,0.01,VWS V14.01,2014-03-01 20:12:00,
2014-03-01 15:13:00,76.5,46.1,30.04,North,0,4.0,10.0,34,0.00,,---,0.01,VWS V14.01,2014-03-01 20:13:00,
2014-03-01 15:14:00,76.5,47.6,30.04,North,0,0.0,10.0,36,0.00,,---,0.01,VWS V14.01,2014-03-01 20:14:00,
2014-03-01 15:15:00,76.5,45.3,30.04,North,0,0.0,10.0,33,0.00,,---,0.01,VWS V14.01,2014-03-01 20:15:00,
2014-03-01 15:17:00,76.8,47.1,30.04,North,0,0.0,10.0,35,0.00,,---,0.01,VWS V14.01,2014-03-01 20:17:00,
2014-03-01 15:18:00,76.8,47.8,30.04,North,0,4.0,10.0,36,0.00,,---,0.01,VWS V14.01,2014-03-01 20:18:00,
2014-03-01 15:19:00,76.8,48.6,30.04,North,0,5.0,10.0,37,0.00,,---,0.01,VWS V14.01,2014-03-01 20:19:00,
2014-03-01 15:20:00,77.0,48.8,30.04,North,0,0.0,10.0,37,0.00,,---,0.01,VWS V14.01,2014-03-01 20:20:00,
2014-03-01 15:23:00,77.0,48.8,30.04,North,0,0.0,11.0,37,0.00,,---,0.01,VWS V14.01,2014-03-01 20:23:00,
2014-03-01 15:24:00,76.8,48.6,30.04,North,0,1.0,11.0,37,0.00,,---,0.01,VWS V14.01,2014-03-01 20:24:00,
2014-03-01 15:25:00,76.7,49.2,30.04,North,0,6.0,11.0,38,0.00,,---,0.01,VWS V14.01,2014-03-01 20:25:00,
2014-03-01 15:26:00,76.7,49.9,30.04,North,0,6.0,11.0,39,0.00,,---,0.01,VWS V14.01,2014-03-01 20:26:00,
2014-03-01 15:29:00,76.3,49.5,30.04,North,0,5.0,11.0,39,0.00,,---,0.01,VWS V14.01,2014-03-01 20:29:00,
2014-03-01 15:30:00,76.3,50.9,30.04,North,0,4.0,11.0,41,0.00,,---,0.01,VWS V14.01,2014-03-01 20:30:00,
2014-03-01 15:31:00,76.3,49.5,30.03,North,0,0.0,11.0,39,0.00,,---,0.01,VWS V14.01,2014-03-01 20:31:00,
2014-03-01 15:32:00,76.3,50.2,30.03,North,0,0.0,11.0,40,0.00,,---,0.01,VWS V14.01,2014-03-01 20:32:00,
2014-03-01 15:33:00,76.3,50.2,30.03,North,0,4.0,11.0,40,0.00,,---,0.01,VWS V14.01,2014-03-01 20:33:00,
2014-03-01 15:35:00,76.3,50.2,30.03,North,0,0.0,11.0,40,0.00,,---,0.01,VWS V14.01,2014-03-01 20:35:00,
2014-03-01 15:36:00,76.3,50.9,30.03,North,0,0.0,11.0,41,0.00,,---,0.01,VWS V14.01,2014-03-01 20:36:00,
2014-03-01 15:37:00,76.5,51.1,30.03,North,0,4.0,11.0,41,0.00,,---,0.01,VWS V14.01,2014-03-01 20:37:00,
2014-03-01 15:38:00,76.3,50.2,30.03,North,0,4.0,11.0,40,0.00,,---,0.01,VWS V14.01,2014-03-01 20:38:00,
2014-03-01 15:40:00,76.1,50.7,30.03,North,0,0.0,11.0,41,0.00,,---,0.01,VWS V14.01,2014-03-01 20:40:00,
2014-03-01 15:42:00,75.8,51.1,30.03,North,0,5.0,11.0,42,0.00,,---,0.01,VWS V14.01,2014-03-01 20:42:00,
2014-03-01 15:43:00,75.6,50.9,30.03,North,0,0.0,11.0,42,0.00,,---,0.01,VWS V14.01,2014-03-01 20:43:00,
2014-03-01 15:45:00,75.3,51.9,30.03,North,0,0.0,11.0,44,0.00,,---,0.01,VWS V14.01,2014-03-01 20:45:00,
2014-03-01 15:49:00,75.1,52.9,30.03,North,0,7.0,11.0,46,0.00,,---,0.01,VWS V14.01,2014-03-01 20:49:00,
2014-03-01 15:50:00,75.1,52.9,30.03,North,0,4.0,11.0,46,0.00,,---,0.01,VWS V14.01,2014-03-01 20:50:00,
2014-03-01 15:51:00,75.1,52.9,30.03,North,0,0.0,11.0,46,0.00,,---,0.01,VWS V14.01,2014-03-01 20:51:00,
2014-03-01 15:53:00,75.3,53.1,30.03,North,0,3.0,11.0,46,0.00,,---,0.01,VWS V14.01,2014-03-01 20:53:00,
2014-03-01 15:55:00,75.1,52.3,30.03,North,0,0.0,11.0,45,0.00,,---,0.01,VWS V14.01,2014-03-01 20:55:00,
2014-03-01 15:56:00,75.1,52.9,30.03,North,0,5.0,11.0,46,0.00,,---,0.01,VWS V14.01,2014-03-01 20:56:00,
2014-03-01 15:58:00,74.9,53.3,30.03,North,0,0.0,11.0,47,0.00,,---,0.01,VWS V14.01,2014-03-01 20:58:00,
2014-03-01 16:01:00,74.9,53.3,30.03,North,0,8.0,11.0,47,0.00,,---,0.01,VWS V14.01,2014-03-01 21:01:00,
2014-03-01 16:02:00,74.9,53.3,30.03,North,0,3.0,5.0,47,0.00,,---,0.01,VWS V14.01,2014-03-01 21:02:00,
2014-03-01 16:03:00,74.9,53.3,30.03,North,0,0.0,5.0,47,0.00,,---,0.01,VWS V14.01,2014-03-01 21:03:00,
2014-03-01 16:05:00,74.9,53.9,30.03,North,0,0.0,5.0,48,0.00,,---,0.01,VWS V14.01,2014-03-01 21:05:00,
2014-03-01 16:07:00,74.7,53.7,30.03,North,0,0.0,6.0,48,0.00,,---,0.01,VWS V14.01,2014-03-01 21:07:00,
2014-03-01 16:08:00,74.7,53.2,30.03,North,0,1.0,8.0,47,0.00,,---,0.01,VWS V14.01,2014-03-01 21:08:00,
2014-03-01 16:09:00,74.6,53.6,30.03,North,0,0.0,8.0,48,0.00,,---,0.01,VWS V14.01,2014-03-01 21:09:00,
2014-03-01 16:10:00,74.6,54.2,30.03,North,0,0.0,8.0,49,0.00,,---,0.01,VWS V14.01,2014-03-01 21:10:00,
2014-03-01 16:12:00,74.6,54.2,30.03,North,0,2.0,8.0,49,0.00,,---,0.01,VWS V14.01,2014-03-01 21:12:00,
2014-03-01 16:13:00,74.6,53.6,30.03,North,0,0.0,8.0,48,0.00,,---,0.01,VWS V14.01,2014-03-01 21:13:00,
2014-03-01 16:15:00,74.6,53.6,30.03,North,0,2.0,8.0,48,0.00,,---,0.01,VWS V14.01,2014-03-01 21:15:00,
2014-03-01 16:16:00,74.6,53.6,30.03,North,0,7.0,8.0,48,0.00,,---,0.01,VWS V14.01,2014-03-01 21:16:00,
2014-03-01 16:18:00,74.4,52.9,30.03,North,0,5.0,9.0,47,0.00,,---,0.01,VWS V14.01,2014-03-01 21:18:00,
2014-03-01 16:19:00,74.2,52.7,30.03,North,0,2.0,9.0,47,0.00,,---,0.01,VWS V14.01,2014-03-01 21:19:00,
2014-03-01 16:22:00,73.9,52.4,30.03,North,0,1.0,9.0,47,0.00,,---,0.01,VWS V14.01,2014-03-01 21:22:00,
2014-03-01 16:23:00,73.7,52.8,30.03,North,0,0.0,9.0,48,0.00,,---,0.01,VWS V14.01,2014-03-01 21:23:00,
2014-03-01 16:24:00,73.5,52.6,30.03,North,0,0.0,9.0,48,0.00,,---,0.01,VWS V14.01,2014-03-01 21:24:00,
2014-03-01 16:28:00,73.3,52.5,30.03,North,0,0.0,9.0,48,0.00,,---,0.01,VWS V14.01,2014-03-01 21:28:00,
2014-03-01 16:29:00,73.3,53.0,30.03,North,0,6.0,9.0,49,0.00,,---,0.01,VWS V14.01,2014-03-01 21:29:00,
2014-03-01 16:30:00,73.3,52.5,30.03,North,0,0.0,9.0,48,0.00,,---,0.01,VWS V14.01,2014-03-01 21:30:00,
2014-03-01 16:31:00,73.3,53.0,30.03,North,0,6.0,9.0,49,0.00,,---,0.01,VWS V14.01,2014-03-01 21:31:00,
2014-03-01 16:33:00,73.0,52.7,30.03,North,0,0.0,9.0,49,0.00,,---,0.01,VWS V14.01,2014-03-01 21:33:00,
2014-03-01 16:36:00,73.0,53.3,30.03,North,0,0.0,9.0,50,0.00,,---,0.01,VWS V14.01,2014-03-01 21:36:00,
2014-03-01 16:37:00,73.2,52.9,30.03,North,0,5.0,10.0,49,0.00,,---,0.01,VWS V14.01,2014-03-01 21:37:00,
2014-03-01 16:38:00,73.2,52.4,30.03,North,0,3.0,10.0,48,0.00,,---,0.01,VWS V14.01,2014-03-01 21:38:00,
2014-03-01 16:40:00,73.2,52.4,30.03,North,0,0.0,10.0,48,0.00,,---,0.01,VWS V14.01,2014-03-01 21:40:00,
2014-03-01 16:41:00,73.2,52.4,30.03,North,0,6.0,10.0,48,0.00,,---,0.01,VWS V14.01,2014-03-01 21:41:00,
2014-03-01 16:43:00,73.2,51.8,30.03,North,0,0.0,10.0,47,0.00,,---,0.01,VWS V14.01,2014-03-01 21:43:00,
2014-03-01 16:44:00,73.2,51.8,30.03,North,0,0.0,10.0,47,0.00,,---,0.01,VWS V14.01,2014-03-01 21:44:00,
2014-03-01 16:45:00,73.2,51.8,30.03,North,0,0.0,10.0,47,0.00,,---,0.01,VWS V14.01,2014-03-01 21:45:00,
2014-03-01 16:47:00,73.0,51.6,30.03,North,0,7.0,10.0,47,0.00,,---,0.01,VWS V14.01,2014-03-01 21:47:00,
2014-03-01 16:49:00,73.0,51.6,30.03,North,0,1.0,10.0,47,0.00,,---,0.01,VWS V14.01,2014-03-01 21:49:00,
2014-03-01 16:51:00,73.0,52.2,30.03,North,0,5.0,10.0,48,0.00,,---,0.01,VWS V14.01,2014-03-01 21:51:00,
2014-03-01 16:52:00,72.8,52.0,30.03,North,0,0.0,10.0,48,0.00,,---,0.01,VWS V14.01,2014-03-01 21:52:00,
2014-03-01 16:53:00,72.8,52.0,30.03,North,0,0.0,10.0,48,0.00,,---,0.01,VWS V14.01,2014-03-01 21:53:00,
2014-03-01 16:54:00,72.8,52.0,30.03,North,0,4.0,10.0,48,0.00,,---,0.01,VWS V14.01,2014-03-01 21:54:00,
2014-03-01 16:55:00,72.8,51.4,30.03,North,0,0.0,10.0,47,0.00,,---,0.01,VWS V14.01,2014-03-01 21:55:00,
2014-03-01 16:56:00,72.8,52.0,30.03,North,0,0.0,10.0,48,0.00,,---,0.01,VWS V14.01,2014-03-01 21:56:00,
2014-03-01 16:57:00,72.8,51.4,30.03,North,0,2.0,10.0,47,0.00,,---,0.01,VWS V14.01,2014-03-01 21:57:00,
2014-03-01 16:58:00,72.8,51.4,30.03,North,0,4.0,10.0,47,0.00,,---,0.01,VWS V14.01,2014-03-01 21:58:00,
2014-03-01 17:00:00,72.8,52.0,30.03,North,0,0.0,10.0,48,0.00,,---,0.01,VWS V14.01,2014-03-01 22:00:00,
2014-03-01 17:01:00,72.8,52.0,30.03,North,0,4.0,10.0,48,0.00,,---,0.01,VWS V14.01,2014-03-01 22:01:00,
2014-03-01 17:03:00,72.8,52.0,30.03,North,0,0.0,6.0,48,0.00,,---,0.01,VWS V14.01,2014-03-01 22:03:00,
2014-03-01 17:04:00,72.8,52.0,30.03,North,0,2.0,6.0,48,0.00,,---,0.01,VWS V14.01,2014-03-01 22:04:00,
2014-03-01 17:05:00,72.7,51.9,30.03,North,0,0.0,8.0,48,0.00,,---,0.01,VWS V14.01,2014-03-01 22:05:00,
2014-03-01 17:06:00,72.5,51.7,30.03,North,0,0.0,8.0,48,0.00,,---,0.01,VWS V14.01,2014-03-01 22:06:00,
2014-03-01 17:07:00,72.5,51.7,30.03,North,0,0.0,8.0,48,0.00,,---,0.01,VWS V14.01,2014-03-01 22:07:00,
2014-03-01 17:09:00,72.5,51.7,30.03,North,0,1.0,8.0,48,0.00,,---,0.01,VWS V14.01,2014-03-01 22:09:00,
2014-03-01 17:11:00,72.3,52.1,30.03,North,0,3.0,8.0,49,0.00,,---,0.01,VWS V14.01,2014-03-01 22:11:00,
2014-03-01 17:12:00,72.1,51.9,30.03,North,0,0.0,8.0,49,0.00,,---,0.01,VWS V14.01,2014-03-01 22:12:00,
2014-03-01 17:14:00,72.1,52.5,30.03,North,0,4.0,8.0,50,0.00,,---,0.01,VWS V14.01,2014-03-01 22:14:00,
2014-03-01 17:16:00,72.0,52.9,30.03,North,0,0.0,8.0,51,0.00,,---,0.01,VWS V14.01,2014-03-01 22:16:00,
2014-03-01 17:17:00,72.0,52.9,30.03,North,0,0.0,8.0,51,0.00,,---,0.01,VWS V14.01,2014-03-01 22:17:00,
2014-03-01 17:18:00,72.0,52.9,30.03,North,0,0.0,8.0,51,0.00,,---,0.01,VWS V14.01,2014-03-01 22:18:00,
2014-03-01 17:19:00,72.0,52.9,30.03,North,0,4.0,8.0,51,0.00,,---,0.01,VWS V14.01,2014-03-01 22:19:00,
2014-03-01 17:21:00,71.8,53.2,30.03,North,0,0.0,8.0,52,0.00,,---,0.01,VWS V14.01,2014-03-01 22:21:00,
2014-03-01 17:22:00,71.8,53.2,30.03,North,0,2.0,8.0,52,0.00,,---,0.01,VWS V14.01,2014-03-01 22:22:00,
2014-03-01 17:23:00,71.6,53.6,30.03,North,0,0.0,8.0,53,0.00,,---,0.01,VWS V14.01,2014-03-01 22:23:00,
2014-03-01 17:24:00,71.6,53.6,30.03,North,0,0.0,8.0,53,0.00,,---,0.01,VWS V14.01,2014-03-01 22:24:00,
2014-03-01 17:25:00,71.8,53.8,30.03,North,0,0.0,8.0,53,0.00,,---,0.01,VWS V14.01,2014-03-01 22:25:00,
2014-03-01 17:27:00,71.6,53.6,30.03,North,0,1.0,8.0,53,0.00,,---,0.01,VWS V14.01,2014-03-01 22:27:00,
2014-03-01 17:28:00,71.6,53.1,30.03,North,0,0.0,8.0,52,0.00,,---,0.01,VWS V14.01,2014-03-01 22:28:00,
2014-03-01 17:29:00,71.6,53.6,30.03,North,0,1.0,8.0,53,0.00,,---,0.01,VWS V14.01,2014-03-01 22:29:00,
2014-03-01 17:31:00,71.6,53.6,30.03,North,0,0.0,8.0,53,0.00,,---,0.01,VWS V14.01,2014-03-01 22:31:00,
2014-03-01 17:33:00,71.6,54.1,30.03,North,0,0.0,8.0,54,0.00,,---,0.01,VWS V14.01,2014-03-01 22:33:00,
2014-03-01 17:34:00,71.6,54.1,30.03,North,0,0.0,8.0,54,0.00,,---,0.01,VWS V14.01,2014-03-01 22:34:00,
2014-03-01 17:35:00,71.5,53.5,30.03,North,0,2.0,8.0,53,0.00,,---,0.01,VWS V14.01,2014-03-01 22:35:00,
2014-03-01 17:36:00,71.5,53.5,30.03,North,0,0.0,8.0,53,0.00,,---,0.01,VWS V14.01,2014-03-01 22:36:00,
2014-03-01 17:37:00,71.3,53.3,30.03,North,0,6.0,8.0,53,0.00,,---,0.01,VWS V14.01,2014-03-01 22:37:00,
2014-03-01 17:38:00,71.3,53.3,30.03,North,0,0.0,8.0,53,0.00,,---,0.01,VWS V14.01,2014-03-01 22:38:00,
2014-03-01 17:39:00,71.1,53.6,30.03,North,0,4.0,8.0,54,0.00,,---,0.01,VWS V14.01,2014-03-01 22:39:00,
2014-03-01 17:40:00,70.9,53.4,30.03,North,0,0.0,8.0,54,0.00,,---,0.01,VWS V14.01,2014-03-01 22:40:00,
2014-03-01 17:41:00,70.9,53.4,30.03,North,0,2.0,8.0,54,0.00,,---,0.01,VWS V14.01,2014-03-01 22:41:00,
2014-03-01 17:42:00,70.9,53.4,30.03,North,0,0.0,8.0,54,0.00,,---,0.01,VWS V14.01,2014-03-01 22:42:00,
2014-03-01 17:44:00,70.8,53.3,30.03,North,0,0.0,8.0,54,0.00,,---,0.01,VWS V14.01,2014-03-01 22:44:00,
2014-03-01 17:45:00,70.8,53.3,30.03,North,0,0.0,8.0,54,0.00,,---,0.01,VWS V14.01,2014-03-01 22:45:00,
2014-03-01 17:46:00,70.6,53.2,30.03,North,0,0.0,8.0,54,0.00,,---,0.01,VWS V14.01,2014-03-01 22:46:00,
2014-03-01 17:47:00,70.6,53.7,30.03,North,0,0.0,8.0,55,0.00,,---,0.01,VWS V14.01,2014-03-01 22:47:00,
2014-03-01 17:51:00,70.3,53.9,30.03,North,0,0.0,8.0,56,0.00,,---,0.01,VWS V14.01,2014-03-01 22:51:00,
2014-03-01 17:52:00,70.3,53.9,30.03,North,0,1.0,8.0,56,0.00,,---,0.01,VWS V14.01,2014-03-01 22:52:00,
2014-03-01 17:53:00,70.1,53.7,30.03,North,0,0.0,8.0,56,0.00,,---,0.01,VWS V14.01,2014-03-01 22:53:00,
2014-03-01 17:54:00,70.1,53.7,30.03,North,0,0.0,8.0,56,0.00,,---,0.01,VWS V14.01,2014-03-01 22:54:00,
2014-03-01 17:58:00,69.8,53.9,30.03,North,0,2.0,8.0,57,0.00,,---,0.01,VWS V14.01,2014-03-01 22:58:00,
2014-03-01 17:59:00,69.6,53.7,30.03,North,0,0.0,8.0,57,0.00,,---,0.01,VWS V14.01,2014-03-01 22:59:00,
2014-03-01 18:00:00,69.4,53.5,30.03,North,0,0.0,8.0,57,0.00,,---,0.01,VWS V14.01,2014-03-01 23:00:00,
2014-03-01 18:01:00,69.3,53.4,30.04,North,0,1.0,3.0,57,0.00,,---,0.01,VWS V14.01,2014-03-01 23:01:00,
2014-03-01 18:04:00,68.9,53.5,30.04,North,0,0.0,3.0,58,0.00,,---,0.01,VWS V14.01,2014-03-01 23:04:00,
2014-03-01 18:05:00,68.9,53.5,30.04,North,0,0.0,3.0,58,0.00,,---,0.01,VWS V14.01,2014-03-01 23:05:00,
2014-03-01 18:06:00,68.8,53.4,30.04,North,0,0.0,3.0,58,0.00,,---,0.01,VWS V14.01,2014-03-01 23:06:00,
2014-03-01 18:07:00,68.8,53.4,30.04,North,0,0.0,3.0,58,0.00,,---,0.01,VWS V14.01,2014-03-01 23:07:00,
2014-03-01 18:11:00,68.3,53.9,30.04,North,0,0.0,4.0,60,0.00,,---,0.01,VWS V14.01,2014-03-01 23:11:00,
2014-03-01 18:12:00,68.3,53.9,30.04,North,0,0.0,4.0,60,0.00,,---,0.01,VWS V14.01,2014-03-01 23:12:00,
2014-03-01 18:15:00,67.9,53.5,30.04,North,0,0.0,4.0,60,0.00,,---,0.01,VWS V14.01,2014-03-01 23:15:00,
2014-03-01 18:17:00,67.9,53.5,30.04,North,0,0.0,4.0,60,0.00,,---,0.01,VWS V14.01,2014-03-01 23:17:00,
2014-03-01 18:18:00,67.8,53.9,30.04,North,0,0.0,4.0,61,0.00,,---,0.01,VWS V14.01,2014-03-01 23:18:00,
2014-03-01 18:20:00,67.6,53.7,30.04,North,0,0.0,4.0,61,0.00,,---,0.01,VWS V14.01,2014-03-01 23:20:00,
2014-03-01 18:22:00,67.6,54.1,30.04,North,0,0.0,4.0,62,0.00,,---,0.01,VWS V14.01,2014-03-01 23:22:00,
2014-03-01 18:23:00,67.4,53.9,30.04,North,0,0.0,4.0,62,0.00,,---,0.01,VWS V14.01,2014-03-01 23:23:00,
2014-03-01 18:24:00,67.4,53.9,30.04,North,0,0.0,4.0,62,0.00,,---,0.01,VWS V14.01,2014-03-01 23:24:00,
2014-03-01 18:25:00,67.4,53.9,30.04,North,0,0.0,4.0,62,0.00,,---,0.01,VWS V14.01,2014-03-01 23:25:00,
2014-03-01 18:27:00,67.3,54.3,30.04,North,0,0.0,4.0,63,0.00,,---,0.01,VWS V14.01,2014-03-01 23:27:00,
2014-03-01 18:28:00,67.1,54.1,30.04,North,0,0.0,4.0,63,0.00,,---,0.01,VWS V14.01,2014-03-01 23:28:00,
2014-03-01 18:29:00,67.1,54.5,30.04,North,0,0.0,4.0,64,0.00,,---,0.01,VWS V14.01,2014-03-01 23:29:00,
2014-03-01 18:30:00,66.9,54.3,30.04,North,0,0.0,4.0,64,0.00,,---,0.01,VWS V14.01,2014-03-01 23:30:00,
2014-03-01 18:31:00,66.9,54.3,30.05,North,0,0.0,4.0,64,0.00,,---,0.01,VWS V14.01,2014-03-01 23:31:00,
2014-03-01 18:32:00,66.9,54.3,30.05,North,0,0.0,4.0,64,0.00,,---,0.01,VWS V14.01,2014-03-01 23:32:00,
2014-03-01 18:33:00,66.8,54.2,30.05,North,0,0.0,4.0,64,0.00,,---,0.01,VWS V14.01,2014-03-01 23:33:00,
2014-03-01 18:34:00,66.8,54.2,30.05,North,0,0.0,4.0,64,0.00,,---,0.01,VWS V14.01,2014-03-01 23:34:00,
2014-03-01 18:35:00,66.6,54.5,30.05,North,0,0.0,4.0,65,0.00,,---,0.01,VWS V14.01,2014-03-01 23:35:00,
2014-03-01 18:36:00,66.6,54.5,30.05,North,0,0.0,4.0,65,0.00,,---,0.01,VWS V14.01,2014-03-01 23:36:00,
2014-03-01 18:37:00,66.4,54.3,30.05,North,0,0.0,4.0,65,0.00,,---,0.01,VWS V14.01,2014-03-01 23:37:00,
2014-03-01 18:39:00,66.4,54.3,30.05,North,0,0.0,4.0,65,0.00,,---,0.01,VWS V14.01,2014-03-01 23:39:00,
2014-03-01 18:41:00,66.3,54.2,30.05,North,0,0.0,4.0,65,0.00,,---,0.01,VWS V14.01,2014-03-01 23:41:00,
2014-03-01 18:44:00,66.0,54.3,30.05,North,0,0.0,4.0,66,0.00,,---,0.01,VWS V14.01,2014-03-01 23:44:00,
2014-03-01 18:45:00,66.0,54.3,30.05,North,0,0.0,4.0,66,0.00,,---,0.01,VWS V14.01,2014-03-01 23:45:00,
2014-03-01 18:46:00,66.0,54.3,30.05,North,0,0.0,4.0,66,0.00,,---,0.01,VWS V14.01,2014-03-01 23:46:00,
2014-03-01 18:49:00,65.6,54.0,30.05,North,0,0.0,4.0,66,0.00,,---,0.01,VWS V14.01,2014-03-01 23:49:00,
2014-03-01 18:50:00,65.6,54.0,30.05,North,0,0.0,4.0,66,0.00,,---,0.01,VWS V14.01,2014-03-01 23:50:00,
2014-03-01 18:51:00,65.5,53.8,30.05,North,0,0.0,4.0,66,0.00,,---,0.01,VWS V14.01,2014-03-01 23:51:00,
2014-03-01 18:53:00,65.5,54.3,30.05,North,0,0.0,4.0,67,0.00,,---,0.01,VWS V14.01,2014-03-01 23:53:00,
2014-03-01 18:54:00,65.3,54.1,30.05,North,0,0.0,4.0,67,0.00,,---,0.01,VWS V14.01,2014-03-01 23:54:00,
2014-03-01 18:55:00,65.2,54.0,30.05,North,0,0.0,4.0,67,0.00,,---,0.01,VWS V14.01,2014-03-01 23:55:00,
2014-03-01 18:57:00,65.0,53.8,30.05,North,0,0.0,4.0,67,0.00,,---,0.01,VWS V14.01,2014-03-01 23:57:00,
2014-03-01 18:58:00,65.0,53.8,30.05,North,0,0.0,4.0,67,0.00,,---,0.01,VWS V14.01,2014-03-01 23:58:00,
2014-03-01 19:01:00,64.8,53.6,30.05,North,0,0.0,4.0,67,0.00,,---,0.01,VWS V14.01,2014-03-02 00:01:00,
2014-03-01 19:03:00,64.7,53.9,30.05,North,0,0.0,0.0,68,0.00,,---,0.01,VWS V14.01,2014-03-02 00:03:00,
2014-03-01 19:04:00,64.5,53.7,30.05,North,0,0.0,0.0,68,0.00,,---,0.01,VWS V14.01,2014-03-02 00:04:00,
2014-03-01 19:05:00,64.5,53.7,30.05,North,0,0.0,0.0,68,0.00,,---,0.01,VWS V14.01,2014-03-02 00:05:00,
2014-03-01 19:06:00,64.3,53.5,30.05,North,0,0.0,0.0,68,0.00,,---,0.01,VWS V14.01,2014-03-02 00:06:00,
2014-03-01 19:08:00,64.2,53.4,30.05,North,0,0.0,0.0,68,0.00,,---,0.01,VWS V14.01,2014-03-02 00:08:00,
2014-03-01 19:09:00,64.2,53.4,30.05,North,0,0.0,0.0,68,0.00,,---,0.01,VWS V14.01,2014-03-02 00:09:00,
2014-03-01 19:10:00,64.2,53.4,30.05,North,0,0.0,0.0,68,0.00,,---,0.01,VWS V14.01,2014-03-02 00:10:00,
2014-03-01 19:13:00,63.9,53.5,30.05,North,0,0.0,0.0,69,0.00,,---,0.01,VWS V14.01,2014-03-02 00:13:00,
2014-03-01 19:14:00,63.9,53.5,30.05,North,0,0.0,0.0,69,0.00,,---,0.01,VWS V14.01,2014-03-02 00:14:00,
2014-03-01 19:15:00,63.7,53.3,30.05,North,0,0.0,0.0,69,0.00,,---,0.01,VWS V14.01,2014-03-02 00:15:00,
2014-03-01 19:17:00,63.5,53.5,30.05,North,0,0.0,0.0,70,0.00,,---,0.01,VWS V14.01,2014-03-02 00:17:00,
2014-03-01 19:18:00,63.5,53.5,30.05,North,0,0.0,0.0,70,0.00,,---,0.01,VWS V14.01,2014-03-02 00:18:00,
2014-03-01 19:19:00,63.4,53.8,30.05,North,0,0.0,0.0,71,0.00,,---,0.01,VWS V14.01,2014-03-02 00:19:00,
2014-03-01 19:20:00,63.4,53.8,30.05,North,0,0.0,0.0,71,0.00,,---,0.01,VWS V14.01,2014-03-02 00:20:00,
2014-03-01 19:23:00,63.1,53.6,30.05,North,0,0.0,0.0,71,0.00,,---,0.01,VWS V14.01,2014-03-02 00:23:00,
2014-03-01 19:24:00,62.9,53.8,30.05,North,0,0.0,0.0,72,0.00,,---,0.01,VWS V14.01,2014-03-02 00:24:00,
2014-03-01 19:26:00,62.9,53.8,30.05,North,0,0.0,0.0,72,0.00,,---,0.01,VWS V14.01,2014-03-02 00:26:00,
2014-03-01 19:27:00,62.7,53.9,30.05,North,0,0.0,0.0,73,0.00,,---,0.01,VWS V14.01,2014-03-02 00:27:00,
2014-03-01 19:28:00,62.7,53.9,30.05,North,0,0.0,0.0,73,0.00,,---,0.01,VWS V14.01,2014-03-02 00:28:00,
2014-03-01 19:29:00,62.6,53.8,30.05,North,0,0.0,0.0,73,0.00,,---,0.01,VWS V14.01,2014-03-02 00:29:00,
2014-03-01 19:30:00,62.4,53.6,30.05,North,0,0.0,0.0,73,0.00,,---,0.01,VWS V14.01,2014-03-02 00:30:00,
2014-03-01 19:32:00,62.4,53.6,30.05,North,0,0.0,0.0,73,0.00,,---,0.01,VWS V14.01,2014-03-02 00:32:00,
2014-03-01 19:33:00,62.3,53.9,30.05,North,0,0.0,0.0,74,0.00,,---,0.01,VWS V14.01,2014-03-02 00:33:00,
2014-03-01 19:34:00,62.3,53.9,30.05,North,0,0.0,0.0,74,0.00,,---,0.01,VWS V14.01,2014-03-02 00:34:00,
2014-03-01 19:35:00,62.1,54.1,30.05,North,0,0.0,0.0,75,0.00,,---,0.01,VWS V14.01,2014-03-02 00:35:00,
2014-03-01 19:36:00,62.1,54.1,30.05,North,0,0.0,0.0,75,0.00,,---,0.01,VWS V14.01,2014-03-02 00:36:00,
2014-03-01 19:37:00,62.0,54.0,30.05,North,0,0.0,0.0,75,0.00,,---,0.01,VWS V14.01,2014-03-02 00:37:00,
2014-03-01 19:39:00,61.8,54.2,30.05,North,0,0.0,0.0,76,0.00,,---,0.01,VWS V14.01,2014-03-02 00:39:00,
2014-03-01 19:41:00,61.5,54.2,30.05,North,0,0.0,0.0,77,0.00,,---,0.01,VWS V14.01,2014-03-02 00:41:00,
2014-03-01 19:42:00,61.5,54.6,30.05,North,0,0.0,0.0,78,0.00,,---,0.01,VWS V14.01,2014-03-02 00:42:00,
2014-03-01 19:43:00,61.3,54.4,30.05,North,0,0.0,0.0,78,0.00,,---,0.01,VWS V14.01,2014-03-02 00:43:00,
2014-03-01 19:46:00,61.0,54.5,30.05,North,0,0.0,0.0,79,0.00,,---,0.01,VWS V14.01,2014-03-02 00:46:00,
2014-03-01 19:47:00,61.0,54.5,30.05,North,0,0.0,0.0,79,0.00,,---,0.01,VWS V14.01,2014-03-02 00:47:00,
2014-03-01 19:48:00,60.9,54.3,30.05,North,0,0.0,0.0,79,0.00,,---,0.01,VWS V14.01,2014-03-02 00:48:00,
2014-03-01 19:49:00,60.9,54.3,30.05,North,0,0.0,0.0,79,0.00,,---,0.01,VWS V14.01,2014-03-02 00:49:00,
2014-03-01 19:52:00,60.5,54.3,30.05,North,0,0.0,0.0,80,0.00,,---,0.01,VWS V14.01,2014-03-02 00:52:00,
2014-03-01 19:53:00,60.5,54.7,30.05,North,0,0.0,0.0,81,0.00,,---,0.01,VWS V14.01,2014-03-02 00:53:00,
2014-03-01 19:54:00,60.4,54.5,30.05,North,0,0.0,0.0,81,0.00,,---,0.01,VWS V14.01,2014-03-02 00:54:00,
2014-03-01 19:58:00,60.2,54.7,30.05,North,0,0.0,0.0,82,0.00,,---,0.01,VWS V14.01,2014-03-02 00:58:00,
2014-03-01 19:59:00,60.1,54.6,30.05,North,0,0.0,0.0,82,0.00,,---,0.01,VWS V14.01,2014-03-02 00:59:00,
2014-03-01 20:00:00,60.1,54.6,30.05,North,0,0.0,0.0,82,0.00,,---,0.01,VWS V14.01,2014-03-02 01:00:00,
2014-03-01 20:03:00,59.8,54.3,30.06,North,0,0.0,0.0,82,0.00,,---,0.01,VWS V14.01,2014-03-02 01:03:00,
2014-03-01 20:05:00,59.6,54.1,30.06,North,0,0.0,0.0,82,0.00,,---,0.01,VWS V14.01,2014-03-02 01:05:00,
2014-03-01 20:07:00,59.5,54.3,30.06,North,0,0.0,0.0,83,0.00,,---,0.01,VWS V14.01,2014-03-02 01:07:00,
2014-03-01 20:08:00,59.5,54.3,30.06,North,0,0.0,0.0,83,0.00,,---,0.01,VWS V14.01,2014-03-02 01:08:00,
2014-03-01 20:09:00,59.5,54.3,30.06,North,0,0.0,0.0,83,0.00,,---,0.01,VWS V14.01,2014-03-02 01:09:00,
2014-03-01 20:10:00,59.3,54.2,30.06,North,0,0.0,0.0,83,0.00,,---,0.01,VWS V14.01,2014-03-02 01:10:00,
2014-03-01 20:13:00,59.2,54.4,30.06,North,0,0.0,0.0,84,0.00,,---,0.01,VWS V14.01,2014-03-02 01:13:00,
2014-03-01 20:14:00,59.2,54.4,30.06,North,0,0.0,0.0,84,0.00,,---,0.01,VWS V14.01,2014-03-02 01:14:00,
2014-03-01 20:16:00,59.0,54.2,30.06,North,0,0.0,0.0,84,0.00,,---,0.01,VWS V14.01,2014-03-02 01:16:00,
2014-03-01 20:18:00,58.9,54.1,30.06,North,0,0.0,0.0,84,0.00,,---,0.01,VWS V14.01,2014-03-02 01:18:00,
2014-03-01 20:19:00,58.9,54.1,30.06,North,0,0.0,0.0,84,0.00,,---,0.01,VWS V14.01,2014-03-02 01:19:00,
2014-03-01 20:20:00,58.7,53.9,30.06,North,0,0.0,0.0,84,0.00,,---,0.01,VWS V14.01,2014-03-02 01:20:00,
2014-03-01 20:21:00,58.7,53.9,30.06,North,0,0.0,0.0,84,0.00,,---,0.01,VWS V14.01,2014-03-02 01:21:00,
2014-03-01 20:24:00,58.6,54.1,30.06,North,0,0.0,0.0,85,0.00,,---,0.01,VWS V14.01,2014-03-02 01:24:00,
2014-03-01 20:25:00,58.4,53.9,30.06,North,0,0.0,0.0,85,0.00,,---,0.01,VWS V14.01,2014-03-02 01:25:00,
2014-03-01 20:26:00,58.4,53.9,30.06,North,0,0.0,0.0,85,0.00,,---,0.01,VWS V14.01,2014-03-02 01:26:00,
2014-03-01 20:27:00,58.4,53.9,30.06,North,0,0.0,0.0,85,0.00,,---,0.01,VWS V14.01,2014-03-02 01:27:00,
2014-03-01 20:30:00,58.3,53.8,30.06,North,0,0.0,0.0,85,0.00,,---,0.01,VWS V14.01,2014-03-02 01:30:00,
2014-03-01 20:31:00,58.1,53.6,30.07,North,0,0.0,0.0,85,0.00,,---,0.01,VWS V14.01,2014-03-02 01:31:00,
2014-03-01 20:32:00,58.1,53.9,30.07,North,0,0.0,0.0,86,0.00,,---,0.01,VWS V14.01,2014-03-02 01:32:00,
2014-03-01 20:34:00,58.1,53.9,30.07,North,0,0.0,0.0,86,0.00,,---,0.01,VWS V14.01,2014-03-02 01:34:00,
2014-03-01 20:35:00,58.1,53.9,30.07,North,0,0.0,0.0,86,0.00,,---,0.01,VWS V14.01,2014-03-02 01:35:00,
2014-03-01 20:37:00,58.0,53.8,30.07,North,0,0.0,0.0,86,0.00,,---,0.01,VWS V14.01,2014-03-02 01:37:00,
2014-03-01 20:38:00,58.0,53.8,30.07,North,0,0.0,0.0,86,0.00,,---,0.01,VWS V14.01,2014-03-02 01:38:00,
2014-03-01 20:40:00,57.8,53.7,30.07,North,0,0.0,0.0,86,0.00,,---,0.01,VWS V14.01,2014-03-02 01:40:00,
2014-03-01 20:41:00,57.8,54.0,30.07,North,0,0.0,0.0,87,0.00,,---,0.01,VWS V14.01,2014-03-02 01:41:00,
2014-03-01 20:42:00,57.8,54.0,30.07,North,0,0.0,0.0,87,0.00,,---,0.01,VWS V14.01,2014-03-02 01:42:00,
2014-03-01 20:43:00,57.6,53.8,30.07,North,0,0.0,0.0,87,0.00,,---,0.01,VWS V14.01,2014-03-02 01:43:00,
2014-03-01 20:44:00,57.6,53.8,30.07,North,0,0.0,0.0,87,0.00,,---,0.01,VWS V14.01,2014-03-02 01:44:00,
2014-03-01 20:47:00,57.5,53.7,30.07,North,0,0.0,0.0,87,0.00,,---,0.01,VWS V14.01,2014-03-02 01:47:00,
2014-03-01 20:48:00,57.5,54.0,30.07,North,0,0.0,0.0,88,0.00,,---,0.01,VWS V14.01,2014-03-02 01:48:00,
2014-03-01 20:50:00,57.5,54.0,30.07,North,0,0.0,0.0,88,0.00,,---,0.01,VWS V14.01,2014-03-02 01:50:00,
2014-03-01 20:52:00,57.3,53.8,30.07,North,0,0.0,0.0,88,0.00,,---,0.01,VWS V14.01,2014-03-02 01:52:00,
2014-03-01 20:53:00,57.3,53.8,30.07,North,0,0.0,0.0,88,0.00,,---,0.01,VWS V14.01,2014-03-02 01:53:00,
2014-03-01 20:54:00,57.3,53.8,30.07,North,0,0.0,0.0,88,0.00,,---,0.01,VWS V14.01,2014-03-02 01:54:00,
2014-03-01 20:55:00,57.3,53.8,30.07,North,0,0.0,0.0,88,0.00,,---,0.01,VWS V14.01,2014-03-02 01:55:00,
2014-03-01 20:56:00,57.3,53.8,30.07,North,0,0.0,0.0,88,0.00,,---,0.01,VWS V14.01,2014-03-02 01:56:00,
2014-03-01 20:57:00,57.3,54.1,30.07,North,0,0.0,0.0,89,0.00,,---,0.01,VWS V14.01,2014-03-02 01:57:00,
2014-03-01 20:58:00,57.3,54.1,30.07,North,0,0.0,0.0,89,0.00,,---,0.01,VWS V14.01,2014-03-02 01:58:00,
2014-03-01 20:59:00,57.3,54.1,30.07,North,0,0.0,0.0,89,0.00,,---,0.01,VWS V14.01,2014-03-02 01:59:00,
2014-03-01 21:00:00,57.2,54.0,30.07,North,0,0.0,0.0,89,0.00,,---,0.01,VWS V14.01,2014-03-02 02:00:00,
2014-03-01 21:02:00,57.2,54.0,30.07,North,0,0.0,0.0,89,0.00,,---,0.01,VWS V14.01,2014-03-02 02:02:00,
2014-03-01 21:03:00,57.2,54.0,30.07,North,0,0.0,0.0,89,0.00,,---,0.01,VWS V14.01,2014-03-02 02:03:00,
2014-03-01 21:05:00,57.2,54.0,30.07,North,0,0.0,0.0,89,0.00,,---,0.01,VWS V14.01,2014-03-02 02:05:00,
2014-03-01 21:06:00,57.2,54.0,30.07,North,0,0.0,0.0,89,0.00,,---,0.01,VWS V14.01,2014-03-02 02:06:00,
2014-03-01 21:07:00,57.2,54.0,30.07,North,0,0.0,0.0,89,0.00,,---,0.01,VWS V14.01,2014-03-02 02:07:00,
2014-03-01 21:08:00,57.2,54.0,30.07,North,0,0.0,0.0,89,0.00,,---,0.01,VWS V14.01,2014-03-02 02:08:00,
2014-03-01 21:10:00,57.2,54.0,30.07,North,0,0.0,0.0,89,0.00,,---,0.01,VWS V14.01,2014-03-02 02:10:00,
2014-03-01 21:11:00,57.2,54.0,30.07,North,0,0.0,0.0,89,0.00,,---,0.01,VWS V14.01,2014-03-02 02:11:00,
2014-03-01 21:12:00,57.2,54.0,30.07,North,0,0.0,0.0,89,0.00,,---,0.01,VWS V14.01,2014-03-02 02:12:00,
2014-03-01 21:15:00,57.2,54.3,30.07,North,0,0.0,0.0,90,0.00,,---,0.01,VWS V14.01,2014-03-02 02:15:00,
2014-03-01 21:17:00,57.3,54.4,30.07,North,0,0.0,0.0,90,0.00,,---,0.01,VWS V14.01,2014-03-02 02:17:00,
2014-03-01 21:18:00,57.3,54.4,30.07,North,0,0.0,0.0,90,0.00,,---,0.01,VWS V14.01,2014-03-02 02:18:00,
2014-03-01 21:21:00,57.5,54.6,30.07,North,0,0.0,0.0,90,0.00,,---,0.01,VWS V14.01,2014-03-02 02:21:00,
2014-03-01 21:23:00,57.5,54.6,30.07,North,0,0.0,0.0,90,0.00,,---,0.01,VWS V14.01,2014-03-02 02:23:00,
2014-03-01 21:24:00,57.5,54.6,30.07,North,0,0.0,0.0,90,0.00,,---,0.01,VWS V14.01,2014-03-02 02:24:00,
2014-03-01 21:27:00,57.6,54.4,30.07,North,0,0.0,0.0,89,0.00,,---,0.01,VWS V14.01,2014-03-02 02:27:00,
2014-03-01 21:28:00,57.6,54.4,30.07,North,0,0.0,0.0,89,0.00,,---,0.01,VWS V14.01,2014-03-02 02:28:00,
2014-03-01 21:29:00,57.8,54.6,30.07,North,0,0.0,0.0,89,0.00,,---,0.01,VWS V14.01,2014-03-02 02:29:00,
2014-03-01 21:33:00,58.1,54.6,30.08,North,0,0.0,0.0,88,0.00,,---,0.01,VWS V14.01,2014-03-02 02:33:00,
2014-03-01 21:34:00,58.1,54.6,30.08,North,0,0.0,0.0,88,0.00,,---,0.01,VWS V14.01,2014-03-02 02:34:00,
2014-03-01 21:35:00,58.1,54.6,30.08,North,0,0.0,0.0,88,0.00,,---,0.01,VWS V14.01,2014-03-02 02:35:00,
2014-03-01 21:36:00,58.3,54.8,30.08,North,0,0.0,0.0,88,0.00,,---,0.01,VWS V14.01,2014-03-02 02:36:00,
2014-03-01 21:38:00,58.3,54.5,30.08,North,0,0.0,0.0,87,0.00,,---,0.01,VWS V14.01,2014-03-02 02:38:00,
2014-03-01 21:39:00,58.3,54.5,30.08,North,0,0.0,0.0,87,0.00,,---,0.01,VWS V14.01,2014-03-02 02:39:00,
2014-03-01 21:41:00,58.3,54.5,30.08,North,0,0.0,0.0,87,0.00,,---,0.01,VWS V14.01,2014-03-02 02:41:00,
2014-03-01 21:43:00,58.3,54.5,30.08,North,0,0.0,0.0,87,0.00,,---,0.01,VWS V14.01,2014-03-02 02:43:00,
2014-03-01 21:44:00,58.4,54.5,30.08,North,0,0.0,0.0,87,0.00,,---,0.01,VWS V14.01,2014-03-02 02:44:00,
2014-03-01 21:46:00,58.4,54.2,30.08,North,0,0.0,0.0,86,0.00,,---,0.01,VWS V14.01,2014-03-02 02:46:00,
2014-03-01 21:48:00,58.4,54.2,30.08,North,0,0.0,0.0,86,0.00,,---,0.01,VWS V14.01,2014-03-02 02:48:00,
2014-03-01 21:49:00,58.4,54.2,30.08,North,0,0.0,0.0,86,0.00,,---,0.01,VWS V14.01,2014-03-02 02:49:00,
2014-03-01 21:53:00,58.6,54.1,30.08,North,0,0.0,0.0,85,0.00,,---,0.01,VWS V14.01,2014-03-02 02:53:00,
2014-03-01 21:54:00,58.6,54.1,30.08,North,0,0.0,0.0,85,0.00,,---,0.01,VWS V14.01,2014-03-02 02:54:00,
2014-03-01 21:55:00,58.6,54.1,30.08,North,0,0.0,0.0,85,0.00,,---,0.01,VWS V14.01,2014-03-02 02:55:00,
2014-03-01 21:56:00,58.6,54.1,30.08,North,0,0.0,0.0,85,0.00,,---,0.01,VWS V14.01,2014-03-02 02:56:00,
2014-03-01 21:58:00,58.6,54.1,30.08,North,0,0.0,0.0,85,0.00,,---,0.01,VWS V14.01,2014-03-02 02:58:00,
2014-03-01 21:59:00,58.6,54.1,30.08,North,0,0.0,0.0,85,0.00,,---,0.01,VWS V14.01,2014-03-02 02:59:00,
2014-03-01 22:01:00,58.4,53.9,30.08,North,0,0.0,0.0,85,0.00,,---,0.01,VWS V14.01,2014-03-02 03:01:00,
2014-03-01 22:02:00,58.4,53.9,30.08,North,0,0.0,0.0,85,0.00,,---,0.01,VWS V14.01,2014-03-02 03:02:00,
2014-03-01 22:03:00,58.4,53.9,30.08,North,0,0.0,0.0,85,0.00,,---,0.01,VWS V14.01,2014-03-02 03:03:00,
2014-03-01 22:04:00,58.4,53.9,30.08,North,0,0.0,0.0,85,0.00,,---,0.01,VWS V14.01,2014-03-02 03:04:00,
2014-03-01 22:06:00,58.3,53.8,30.08,North,0,0.0,0.0,85,0.00,,---,0.01,VWS V14.01,2014-03-02 03:06:00,
2014-03-01 22:08:00,58.3,53.8,30.08,North,0,0.0,0.0,85,0.00,,---,0.01,VWS V14.01,2014-03-02 03:08:00,
2014-03-01 22:10:00,58.3,53.8,30.08,North,0,0.0,0.0,85,0.00,,---,0.01,VWS V14.01,2014-03-02 03:10:00,
2014-03-01 22:11:00,58.3,53.8,30.08,North,0,0.0,0.0,85,0.00,,---,0.01,VWS V14.01,2014-03-02 03:11:00,
2014-03-01 22:14:00,58.1,53.6,30.08,North,0,0.0,0.0,85,0.00,,---,0.01,VWS V14.01,2014-03-02 03:14:00,
2014-03-01 22:16:00,58.1,53.6,30.08,North,0,0.0,0.0,85,0.00,,---,0.01,VWS V14.01,2014-03-02 03:16:00,
2014-03-01 22:17:00,58.1,53.6,30.08,North,0,0.0,0.0,85,0.00,,---,0.01,VWS V14.01,2014-03-02 03:17:00,
2014-03-01 22:18:00,58.1,53.6,30.08,North,0,0.0,0.0,85,0.00,,---,0.01,VWS V14.01,2014-03-02 03:18:00,
2014-03-01 22:19:00,58.1,53.9,30.08,North,0,0.0,0.0,86,0.00,,---,0.01,VWS V14.01,2014-03-02 03:19:00,
2014-03-01 22:22:00,58.1,53.9,30.08,North,0,0.0,0.0,86,0.00,,---,0.01,VWS V14.01,2014-03-02 03:22:00,
2014-03-01 22:23:00,58.0,53.8,30.08,North,0,0.0,0.0,86,0.00,,---,0.01,VWS V14.01,2014-03-02 03:23:00,
2014-03-01 22:24:00,58.0,53.8,30.08,North,0,0.0,0.0,86,0.00,,---,0.01,VWS V14.01,2014-03-02 03:24:00,
2014-03-01 22:28:00,57.8,53.7,30.08,North,0,0.0,0.0,86,0.00,,---,0.01,VWS V14.01,2014-03-02 03:28:00,
2014-03-01 22:29:00,57.8,53.7,30.08,North,0,0.0,0.0,86,0.00,,---,0.01,VWS V14.01,2014-03-02 03:29:00,
2014-03-01 22:30:00,57.8,53.7,30.08,North,0,0.0,0.0,86,0.00,,---,0.01,VWS V14.01,2014-03-02 03:30:00,
2014-03-01 22:32:00,57.6,53.5,30.08,North,0,0.0,0.0,86,0.00,,---,0.01,VWS V14.01,2014-03-02 03:32:00,
2014-03-01 22:34:00,57.5,53.3,30.08,North,0,0.0,0.0,86,0.00,,---,0.01,VWS V14.01,2014-03-02 03:34:00,
2014-03-01 22:35:00,57.5,53.7,30.08,North,0,0.0,0.0,87,0.00,,---,0.01,VWS V14.01,2014-03-02 03:35:00,
2014-03-01 22:36:00,57.5,53.3,30.08,North,0,0.0,0.0,86,0.00,,---,0.01,VWS V14.01,2014-03-02 03:36:00,
2014-03-01 22:39:00,57.5,53.3,30.08,North,0,0.0,0.0,86,0.00,,---,0.01,VWS V14.01,2014-03-02 03:39:00,
2014-03-01 22:40:00,57.5,53.3,30.08,North,0,0.0,0.0,86,0.00,,---,0.01,VWS V14.01,2014-03-02 03:40:00,
2014-03-01 22:41:00,57.5,53.3,30.08,North,0,0.0,0.0,86,0.00,,---,0.01,VWS V14.01,2014-03-02 03:41:00,
2014-03-01 22:42:00,57.5,53.3,30.08,North,0,0.0,0.0,86,0.00,,---,0.01,VWS V14.01,2014-03-02 03:42:00,
2014-03-01 22:44:00,57.5,53.3,30.08,North,0,0.0,0.0,86,0.00,,---,0.01,VWS V14.01,2014-03-02 03:44:00,
2014-03-01 22:45:00,57.5,53.3,30.08,North,0,0.0,0.0,86,0.00,,---,0.01,VWS V14.01,2014-03-02 03:45:00,
2014-03-01 22:46:00,57.5,53.3,30.08,North,0,0.0,0.0,86,0.00,,---,0.01,VWS V14.01,2014-03-02 03:46:00,
2014-03-01 22:48:00,57.5,53.3,30.08,North,0,0.0,0.0,86,0.00,,---,0.01,VWS V14.01,2014-03-02 03:48:00,
2014-03-01 22:49:00,57.5,53.3,30.08,North,0,0.0,0.0,86,0.00,,---,0.01,VWS V14.01,2014-03-02 03:49:00,
2014-03-01 22:51:00,57.5,53.3,30.08,North,0,0.0,0.0,86,0.00,,---,0.01,VWS V14.01,2014-03-02 03:51:00,
2014-03-01 22:52:00,57.5,53.3,30.08,North,0,0.0,0.0,86,0.00,,---,0.01,VWS V14.01,2014-03-02 03:52:00,
2014-03-01 22:53:00,57.5,53.3,30.08,North,0,0.0,0.0,86,0.00,,---,0.01,VWS V14.01,2014-03-02 03:53:00,
2014-03-01 22:54:00,57.5,53.3,30.08,North,0,0.0,0.0,86,0.00,,---,0.01,VWS V14.01,2014-03-02 03:54:00,
2014-03-01 22:55:00,57.5,53.0,30.08,North,0,0.0,0.0,85,0.00,,---,0.01,VWS V14.01,2014-03-02 03:55:00,
2014-03-01 22:57:00,57.6,53.1,30.08,North,0,0.0,0.0,85,0.00,,---,0.01,VWS V14.01,2014-03-02 03:57:00,
2014-03-01 22:59:00,57.6,53.1,30.08,North,0,0.0,0.0,85,0.00,,---,0.01,VWS V14.01,2014-03-02 03:59:00,
2014-03-01 23:00:00,57.6,53.1,30.08,North,0,0.0,0.0,85,0.00,,---,0.01,VWS V14.01,2014-03-02 04:00:00,
2014-03-01 23:01:00,57.6,53.1,30.08,North,0,0.0,0.0,85,0.00,,---,0.01,VWS V14.01,2014-03-02 04:01:00,
2014-03-01 23:03:00,57.8,53.3,30.08,North,0,0.0,0.0,85,0.00,,---,0.01,VWS V14.01,2014-03-02 04:03:00,
2014-03-01 23:04:00,57.8,53.3,30.08,North,0,0.0,0.0,85,0.00,,---,0.01,VWS V14.01,2014-03-02 04:04:00,
2014-03-01 23:06:00,57.8,53.3,30.08,North,0,0.0,0.0,85,0.00,,---,0.01,VWS V14.01,2014-03-02 04:06:00,
2014-03-01 23:07:00,57.8,53.3,30.08,North,0,0.0,0.0,85,0.00,,---,0.01,VWS V14.01,2014-03-02 04:07:00,
2014-03-01 23:08:00,57.8,53.0,30.08,North,0,0.0,0.0,84,0.00,,---,0.01,VWS V14.01,2014-03-02 04:08:00,
2014-03-01 23:10:00,57.8,53.0,30.08,North,0,0.0,0.0,84,0.00,,---,0.01,VWS V14.01,2014-03-02 04:10:00,
2014-03-01 23:11:00,57.8,53.0,30.08,North,0,0.0,0.0,84,0.00,,---,0.01,VWS V14.01,2014-03-02 04:11:00,
2014-03-01 23:13:00,57.8,53.0,30.08,North,0,0.0,0.0,84,0.00,,---,0.01,VWS V14.01,2014-03-02 04:13:00,
2014-03-01 23:14:00,57.8,53.0,30.08,North,0,0.0,0.0,84,0.00,,---,0.01,VWS V14.01,2014-03-02 04:14:00,
2014-03-01 23:16:00,57.8,53.0,30.08,North,0,0.0,0.0,84,0.00,,---,0.01,VWS V14.01,2014-03-02 04:16:00,
2014-03-01 23:17:00,57.8,53.0,30.08,North,0,0.0,0.0,84,0.00,,---,0.01,VWS V14.01,2014-03-02 04:17:00,
2014-03-01 23:18:00,57.8,53.0,30.08,North,0,0.0,0.0,84,0.00,,---,0.01,VWS V14.01,2014-03-02 04:18:00,
2014-03-01 23:19:00,57.8,53.0,30.08,North,0,0.0,0.0,84,0.00,,---,0.01,VWS V14.01,2014-03-02 04:19:00,
2014-03-01 23:22:00,57.8,53.0,30.08,North,0,0.0,0.0,84,0.00,,---,0.01,VWS V14.01,2014-03-02 04:22:00,
2014-03-01 23:23:00,57.8,53.0,30.08,North,0,0.0,0.0,84,0.00,,---,0.01,VWS V14.01,2014-03-02 04:23:00,
2014-03-01 23:24:00,57.8,53.0,30.08,North,0,0.0,0.0,84,0.00,,---,0.01,VWS V14.01,2014-03-02 04:24:00,
2014-03-01 23:25:00,57.8,53.0,30.08,North,0,0.0,0.0,84,0.00,,---,0.01,VWS V14.01,2014-03-02 04:25:00,
2014-03-01 23:28:00,57.6,52.8,30.08,North,0,0.0,0.0,84,0.00,,---,0.01,VWS V14.01,2014-03-02 04:28:00,
2014-03-01 23:29:00,57.6,52.8,30.08,North,0,0.0,0.0,84,0.00,,---,0.01,VWS V14.01,2014-03-02 04:29:00,
2014-03-01 23:30:00,57.6,52.8,30.09,North,0,0.0,0.0,84,0.00,,---,0.01,VWS V14.01,2014-03-02 04:30:00,
2014-03-01 23:31:00,57.6,52.8,30.09,North,0,0.0,0.0,84,0.00,,---,0.01,VWS V14.01,2014-03-02 04:31:00,
2014-03-01 23:32:00,57.6,52.8,30.09,North,0,0.0,0.0,84,0.00,,---,0.01,VWS V14.01,2014-03-02 04:32:00,
2014-03-01 23:34:00,57.6,52.8,30.09,North,0,0.0,0.0,84,0.00,,---,0.01,VWS V14.01,2014-03-02 04:34:00,
2014-03-01 23:35:00,57.6,52.8,30.09,North,0,0.0,0.0,84,0.00,,---,0.01,VWS V14.01,2014-03-02 04:35:00,
2014-03-01 23:36:00,57.6,52.8,30.09,North,0,0.0,0.0,84,0.00,,---,0.01,VWS V14.01,2014-03-02 04:36:00,
2014-03-01 23:37:00,57.6,52.8,30.09,North,0,0.0,0.0,84,0.00,,---,0.01,VWS V14.01,2014-03-02 04:37:00,
2014-03-01 23:38:00,57.6,52.8,30.09,North,0,0.0,0.0,84,0.00,,---,0.01,VWS V14.01,2014-03-02 04:38:00,
2014-03-01 23:40:00,57.6,52.8,30.09,North,0,0.0,0.0,84,0.00,,---,0.01,VWS V14.01,2014-03-02 04:40:00,
2014-03-01 23:41:00,57.6,52.8,30.09,North,0,0.0,0.0,84,0.00,,---,0.01,VWS V14.01,2014-03-02 04:41:00,
2014-03-01 23:43:00,57.6,52.8,30.09,North,0,0.0,0.0,84,0.00,,---,0.01,VWS V14.01,2014-03-02 04:43:00,
2014-03-01 23:44:00,57.6,52.8,30.09,North,0,0.0,0.0,84,0.00,,---,0.01,VWS V14.01,2014-03-02 04:44:00,
2014-03-01 23:46:00,57.6,52.8,30.08,North,0,0.0,0.0,84,0.00,,---,0.01,VWS V14.01,2014-03-02 04:46:00,
2014-03-01 23:47:00,57.6,52.8,30.08,North,0,0.0,0.0,84,0.00,,---,0.01,VWS V14.01,2014-03-02 04:47:00,
2014-03-01 23:49:00,57.6,52.8,30.08,North,0,0.0,0.0,84,0.00,,---,0.01,VWS V14.01,2014-03-02 04:49:00,
2014-03-01 23:50:00,57.6,52.8,30.08,North,0,0.0,0.0,84,0.00,,---,0.01,VWS V14.01,2014-03-02 04:50:00,
2014-03-01 23:53:00,57.5,53.0,30.08,North,0,0.0,0.0,85,0.00,,---,0.01,VWS V14.01,2014-03-02 04:53:00,
2014-03-01 23:54:00,57.5,53.0,30.08,North,0,0.0,0.0,85,0.00,,---,0.01,VWS V14.01,2014-03-02 04:54:00,
2014-03-01 23:55:00,57.5,53.0,30.08,North,0,0.0,0.0,85,0.00,,---,0.01,VWS V14.01,2014-03-02 04:55:00,
2014-03-01 23:56:00,57.5,53.0,30.08,North,0,0.0,0.0,85,0.00,,---,0.01,VWS V14.01,2014-03-02 04:56:00,
2014-03-01 23:59:00,57.3,52.8,30.08,North,0,0.0,0.0,85,0.00,,---,0.01,VWS V14.01,2014-03-02 04:59:00,